Observation data for Earth on 01/19/2019      Previous  Date  Next       Current Mesonet Observations  Soil Data  Daily Summary Page  Observations in Plain Language
KEA1 190600Z 33024KT 01/M01 A3011 RMK A01 T00091012  RH  086%=      5-min Rain = 0
KEA1 190601Z 33025KT 01/M01 A3011 RMK A01 T00091014  RH  085%=      5-min Rain = 0
KEA1 190602Z 33022KT 01/M02 A3011 RMK A01 T00081015  RH  085%=      5-min Rain = 0
KEA1 190603Z 33021KT 01/M01 A3011 RMK A01 T00081014  RH  085%=      5-min Rain = 0
KEA1 190604Z 33021KT 01/M02 A3011 RMK A01 T00071015  RH  086%=      5-min Rain = 0
KEA1 190605Z 33020KT 01/M02 A3011 RMK A01 T00061015  RH  086%=      5-min Rain = 0
KEA1 190606Z 33018KT 01/M02 A3011 RMK A01 T00061015  RH  086%=      5-min Rain = 0
KEA1 190607Z 33021G26KT 01/M02 A3011 RMK A01 T00061015  RH  086%=      5-min Rain = 0
KEA1 190608Z 33021KT 01/M02 A3012 RMK A01 T00061015  RH  086%=      5-min Rain = 0
KEA1 190609Z 33019KT 01/M02 A3012 RMK A01 T00061015  RH  086%=      5-min Rain = 0
KEA1 190610Z 33017KT 01/M02 A3012 RMK A01 T00061015  RH  086%=      5-min Rain = 0
KEA1 190611Z 33018KT 01/M02 A3012 RMK A01 T00061015  RH  086%=      5-min Rain = 0
KEA1 190612Z 33020KT 01/M02 A3012 RMK A01 T00051015  RH  086%=      5-min Rain = 0
KEA1 190613Z 33016KT 01/M01 A3012 RMK A01 T00061014  RH  086%=      5-min Rain = 0
KEA1 190614Z 33014KT 01/M01 A3012 RMK A01 T00061014  RH  087%=      5-min Rain = 0
KEA1 190615Z 33019G24KT 01/M01 A3012 RMK A01 T00061013  RH  087%=      5-min Rain = 0
KEA1 190616Z 33017KT 01/M01 A3012 RMK A01 T00061014  RH  086%=      5-min Rain = 0
KEA1 190617Z 32016KT 01/M02 A3012 RMK A01 T00061015  RH  086%=      5-min Rain = 0
KEA1 190618Z 33018KT 01/M02 A3012 RMK A01 T00061015  RH  086%=      5-min Rain = 0
KEA1 190619Z 33019KT 01/M02 A3012 RMK A01 T00051015  RH  086%=      5-min Rain = 0
KEA1 190620Z 33016KT 01/M02 A3012 RMK A01 T00051016  RH  086%=      5-min Rain = 0
KEA1 190621Z 33020KT 01/M02 A3012 RMK A01 T00051017  RH  086%=      5-min Rain = 0
KEA1 190622Z 33018G24KT 01/M02 A3012 RMK A01 T00051017  RH  085%=      5-min Rain = 0
KEA1 190623Z 33017G23KT 00/M02 A3012 RMK A01 T00041018  RH  085%=      5-min Rain = 0
KEA1 190624Z 33021G28KT 00/M02 A3012 RMK A01 T00031019  RH  085%=      5-min Rain = 0
KEA1 190625Z 34020KT 00/M02 A3012 RMK A01 T00031020  RH  085%=      5-min Rain = 0
KEA1 190626Z 34020G28KT 00/M02 A3012 RMK A01 T00021020  RH  085%=      5-min Rain = 0
KEA1 190627Z 34024KT 00/M02 A3012 RMK A01 T00031021  RH  084%=      5-min Rain = 0
KEA1 190628Z 34026G31KT 00/M02 A3012 RMK A01 T00031021  RH  084%=      5-min Rain = 0
KEA1 190629Z 34023KT 00/M02 A3012 RMK A01 T00031022  RH  083%=      5-min Rain = 0
KEA1 190630Z 34021G28KT 00/M02 A3012 RMK A01 T00031022  RH  083%=      5-min Rain = 0
KEA1 190631Z 34022KT 00/M02 A3012 RMK A01 T00031022  RH  084%=      5-min Rain = 0
KEA1 190632Z 34022KT 00/M02 A3012 RMK A01 T00031022  RH  083%=      5-min Rain = 0
KEA1 190633Z 34019KT 00/M02 A3012 RMK A01 T00031022  RH  084%=      5-min Rain = 0
KEA1 190634Z 34018KT 00/M02 A3012 RMK A01 T00021022  RH  084%=      5-min Rain = 0
KEA1 190635Z 34017KT 00/M02 A3013 RMK A01 T00021021  RH  085%=      5-min Rain = 0
KEA1 190636Z 34017KT 00/M02 A3013 RMK A01 T00021021  RH  085%=      5-min Rain = 0
KEA1 190637Z 34020G25KT 00/M02 A3013 RMK A01 T00011021  RH  085%=      5-min Rain = 0
KEA1 190638Z 34020G25KT 00/M02 A3013 RMK A01 T00021022  RH  084%=      5-min Rain = 0
KEA1 190639Z 34019KT 00/M02 A3013 RMK A01 T00021022  RH  084%=      5-min Rain = 0
KEA1 190640Z 34017KT 00/M02 A3013 RMK A01 T00021022  RH  084%=      5-min Rain = 0
KEA1 190641Z 34018KT 00/M02 A3013 RMK A01 T00021021  RH  085%=      5-min Rain = 0
KEA1 190642Z 34019KT 00/M02 A3013 RMK A01 T00011021  RH  085%=      5-min Rain = 0
KEA1 190643Z 34017KT 00/M02 A3013 RMK A01 T00011021  RH  085%=      5-min Rain = 0
KEA1 190644Z 33014KT 00/M02 A3013 RMK A01 T00011021  RH  085%=      5-min Rain = 0
KEA1 190645Z 33015KT 00/02 A3013 RMK A01 T00000-21  RH  086%=      5-min Rain = 0
KEA1 190646Z 33015KT 00/02 A3013 RMK A01 T00-00-21  RH  086%=      5-min Rain = 0
KEA1 190647Z 33015KT 00/02 A3013 RMK A01 T00-00-21  RH  086%=      5-min Rain = 0
KEA1 190648Z 32013KT M00/M02 A3013 RMK A01 T10011021  RH  086%=      5-min Rain = 0
KEA1 190649Z 32015G20KT M00/M02 A3013 RMK A01 T10011021  RH  086%=      5-min Rain = 0
KEA1 190650Z 33016KT 00/02 A3013 RMK A01 T00-00-21  RH  086%=      5-min Rain = 0
KEA1 190651Z 33020G28KT M00/M02 A3013 RMK A01 T10011021  RH  086%=      5-min Rain = 0
KEA1 190652Z 33020KT 00/02 A3013 RMK A01 T00-00-23  RH  085%=      5-min Rain = 0
KEA1 190653Z 33020KT 00/M02 A3013 RMK A01 T00011023  RH  084%=      5-min Rain = 0
KEA1 190654Z 33023KT 00/M02 A3013 RMK A01 T00011024  RH  083%=      5-min Rain = 0
KEA1 190655Z 33020G27KT 00/M03 A3013 RMK A01 T00011025  RH  082%=      5-min Rain = 0
KEA1 190656Z 33021KT 00/M02 A3013 RMK A01 T00021024  RH  083%=      5-min Rain = 0
KEA1 190657Z 33021G27KT 00/M03 A3013 RMK A01 T00011025  RH  083%=      5-min Rain = 0
KEA1 190658Z 33021KT 00/M03 A3013 RMK A01 T00011025  RH  083%=      5-min Rain = 0
KEA1 190659Z 33017KT 00/M03 A3013 RMK A01 T00011025  RH  083%=      5-min Rain = 0
KEA1 190700Z 33017G24KT 00/03 A3013 RMK A01 T00-00-25  RH  084%=      5-min Rain = 0
KEA1 190701Z 34018KT M00/M03 A3013 RMK A01 T10011025  RH  084%=      5-min Rain = 0
KEA1 190702Z 33019KT M00/M03 A3013 RMK A01 T10011025  RH  084%=      5-min Rain = 0
KEA1 190703Z 33019KT M00/M03 A3013 RMK A01 T10011025  RH  084%=      5-min Rain = 0
KEA1 190704Z 33019G24KT M00/M03 A3013 RMK A01 T10011026  RH  083%=      5-min Rain = 0
KEA1 190705Z 33020G25KT M00/M03 A3013 RMK A01 T10011026  RH  083%=      5-min Rain = 0
KEA1 190706Z 33018KT 00/03 A3013 RMK A01 T00-00-26  RH  083%=      5-min Rain = 0
KEA1 190707Z 33016KT 00/03 A3013 RMK A01 T00-00-26  RH  083%=      5-min Rain = 0
KEA1 190708Z 33015KT M00/M03 A3013 RMK A01 T10011026  RH  084%=      5-min Rain = 0
KEA1 190709Z 33016G21KT M00/M03 A3013 RMK A01 T10021026  RH  084%=      5-min Rain = 0
KEA1 190710Z 33018KT M00/M03 A3013 RMK A01 T10021026  RH  084%=      5-min Rain = 0
KEA1 190711Z 33016KT M00/M03 A3013 RMK A01 T10021026  RH  084%=      5-min Rain = 0
KEA1 190712Z 33018G23KT M00/M03 A3013 RMK A01 T10011026  RH  084%=      5-min Rain = 0
KEA1 190713Z 33019KT M00/M03 A3013 RMK A01 T10011026  RH  083%=      5-min Rain = 0
KEA1 190714Z 33016G21KT 00/03 A3013 RMK A01 T00-00-26  RH  083%=      5-min Rain = 0
KEA1 190715Z 33018KT M00/M03 A3013 RMK A01 T10011025  RH  083%=      5-min Rain = 0
KEA1 190716Z 33016KT M00/M03 A3013 RMK A01 T10011026  RH  083%=      5-min Rain = 0
KEA1 190717Z 33016G21KT M00/M03 A3013 RMK A01 T10011026  RH  083%=      5-min Rain = 0
KEA1 190718Z 33017KT M00/M03 A3014 RMK A01 T10011026  RH  083%=      5-min Rain = 0
KEA1 190719Z 33019KT M00/M03 A3014 RMK A01 T10021026  RH  083%=      5-min Rain = 0
KEA1 190720Z 33016KT M00/M03 A3014 RMK A01 T10011026  RH  083%=      5-min Rain = 0
KEA1 190721Z 33016G21KT M00/M03 A3014 RMK A01 T10011026  RH  083%=      5-min Rain = 0
KEA1 190722Z 33019KT M00/M03 A3014 RMK A01 T10011026  RH  083%=      5-min Rain = 0
KEA1 190723Z 33018KT M00/M03 A3014 RMK A01 T10011027  RH  083%=      5-min Rain = 0
KEA1 190724Z 32017KT M00/M03 A3014 RMK A01 T10011027  RH  083%=      5-min Rain = 0
KEA1 190725Z 33018G23KT M00/M03 A3014 RMK A01 T10011027  RH  082%=      5-min Rain = 0
KEA1 190726Z 32018KT 00/03 A3014 RMK A01 T00-00-26  RH  083%=      5-min Rain = 0
KEA1 190727Z 33021KT M00/M03 A3014 RMK A01 T10011027  RH  083%=      5-min Rain = 0
KEA1 190728Z 32020KT 00/03 A3014 RMK A01 T00-00-27  RH  082%=      5-min Rain = 0
KEA1 190729Z 32017G22KT 00/03 A3014 RMK A01 T00-00-27  RH  082%=      5-min Rain = 0
KEA1 190730Z 32019KT 00/03 A3014 RMK A01 T00-00-27  RH  082%=      5-min Rain = 0
KEA1 190731Z 33017G22KT 00/03 A3014 RMK A01 T00-00-27  RH  082%=      5-min Rain = 0
KEA1 190732Z 33018KT 00/03 A3015 RMK A01 T00000-27  RH  082%=      5-min Rain = 0
KEA1 190733Z 32018KT 00/03 A3015 RMK A01 T00-00-27  RH  082%=      5-min Rain = 0
KEA1 190734Z 32018KT 00/03 A3015 RMK A01 T00-00-27  RH  082%=      5-min Rain = 0
KEA1 190735Z 32020G25KT 00/03 A3015 RMK A01 T00-00-27  RH  082%=      5-min Rain = 0
KEA1 190736Z 32017KT M00/M03 A3015 RMK A01 T10011028  RH  082%=      5-min Rain = 0
KEA1 190737Z 32017KT M00/M03 A3015 RMK A01 T10011027  RH  082%=      5-min Rain = 0
KEA1 190738Z 32017KT 00/03 A3015 RMK A01 T00-00-26  RH  083%=      5-min Rain = 0
KEA1 190739Z 32014KT M00/M03 A3015 RMK A01 T10011026  RH  083%=      5-min Rain = 0
KEA1 190740Z 32016KT M00/M03 A3015 RMK A01 T10021026  RH  084%=      5-min Rain = 0
KEA1 190741Z 31016KT M00/M03 A3015 RMK A01 T10021026  RH  084%=      5-min Rain = 0
KEA1 190742Z 32016KT M00/M03 A3015 RMK A01 T10031026  RH  084%=      5-min Rain = 0
KEA1 190743Z 32015KT M00/M03 A3015 RMK A01 T10031026  RH  084%=      5-min Rain = 0
KEA1 190744Z 31017KT M00/M03 A3016 RMK A01 T10031026  RH  084%=      5-min Rain = 0
KEA1 190745Z 31018KT M00/M03 A3016 RMK A01 T10031026  RH  084%=      5-min Rain = 0
KEA1 190746Z 32018KT M00/M03 A3016 RMK A01 T10011026  RH  083%=      5-min Rain = 0
KEA1 190747Z 32016KT M00/M03 A3016 RMK A01 T10011027  RH  083%=      5-min Rain = 0
KEA1 190748Z 31016KT M00/M03 A3016 RMK A01 T10011027  RH  083%=      5-min Rain = 0
KEA1 190749Z 32018G23KT M00/M03 A3016 RMK A01 T10021027  RH  083%=      5-min Rain = 0
KEA1 190750Z 32018KT M00/M03 A3016 RMK A01 T10021028  RH  083%=      5-min Rain = 0
KEA1 190751Z 32018KT M00/M03 A3016 RMK A01 T10011028  RH  083%=      5-min Rain = 0
KEA1 190752Z 32018KT M00/M03 A3016 RMK A01 T10021028  RH  082%=      5-min Rain = 0
KEA1 190753Z 32016KT M00/M03 A3016 RMK A01 T10011028  RH  082%=      5-min Rain = 0
KEA1 190754Z 32017KT M00/M03 A3016 RMK A01 T10021028  RH  083%=      5-min Rain = 0
KEA1 190755Z 32016KT M00/M03 A3016 RMK A01 T10021028  RH  083%=      5-min Rain = 0
KEA1 190756Z 32019KT M00/M03 A3017 RMK A01 T10021028  RH  083%=      5-min Rain = 0
KEA1 190757Z 32016KT M00/M03 A3017 RMK A01 T10021028  RH  082%=      5-min Rain = 0
KEA1 190758Z 32017KT M00/M03 A3017 RMK A01 T10021028  RH  082%=      5-min Rain = 0
KEA1 190759Z 32019KT M00/M03 A3017 RMK A01 T10021029  RH  082%=      5-min Rain = 0
KEA1 190800Z 32016KT M00/M03 A3017 RMK A01 T10021029  RH  082%=      5-min Rain = 0
KEA1 190801Z 32014KT M00/M03 A3017 RMK A01 T10021029  RH  082%=      5-min Rain = 0
KEA1 190802Z 32014KT M00/M03 A3017 RMK A01 T10021029  RH  082%=      5-min Rain = 0
KEA1 190803Z 32014KT M00/M03 A3017 RMK A01 T10031029  RH  083%=      5-min Rain = 0
KEA1 190804Z 31015KT M00/M03 A3017 RMK A01 T10031029  RH  083%=      5-min Rain = 0
KEA1 190805Z 32016KT M00/M03 A3017 RMK A01 T10031029  RH  083%=      5-min Rain = 0
KEA1 190806Z 32016KT M00/M03 A3017 RMK A01 T10031029  RH  082%=      5-min Rain = 0
KEA1 190807Z 32014KT M00/M03 A3017 RMK A01 T10021029  RH  082%=      5-min Rain = 0
KEA1 190808Z 31013KT M00/M03 A3017 RMK A01 T10031029  RH  082%=      5-min Rain = 0
KEA1 190809Z 32013KT M00/M03 A3017 RMK A01 T10041029  RH  083%=      5-min Rain = 0
KEA1 190810Z 32013KT M00/M03 A3017 RMK A01 T10041029  RH  083%=      5-min Rain = 0
KEA1 190811Z 32013KT M01/M03 A3017 RMK A01 T10051029  RH  084%=      5-min Rain = 0
KEA1 190812Z 31015KT M01/M03 A3017 RMK A01 T10051029  RH  084%=      5-min Rain = 0
KEA1 190813Z 31014KT M01/M03 A3017 RMK A01 T10051029  RH  084%=      5-min Rain = 0
KEA1 190814Z 32012KT M00/M03 A3017 RMK A01 T10041029  RH  083%=      5-min Rain = 0
KEA1 190815Z 31014KT M01/M03 A3017 RMK A01 T10051029  RH  083%=      5-min Rain = 0
KEA1 190816Z 31012KT M01/M03 A3017 RMK A01 T10051029  RH  084%=      5-min Rain = 0
KEA1 190817Z 32012KT M01/M03 A3017 RMK A01 T10051029  RH  084%=      5-min Rain = 0
KEA1 190818Z 31011KT M01/M03 A3017 RMK A01 T10061029  RH  084%=      5-min Rain = 0
KEA1 190819Z 31010KT M01/M03 A3017 RMK A01 T10071030  RH  085%=      5-min Rain = 0
KEA1 190820Z 32011KT M01/M03 A3017 RMK A01 T10071029  RH  085%=      5-min Rain = 0
KEA1 190821Z 32013KT M01/M03 A3017 RMK A01 T10081030  RH  085%=      5-min Rain = 0
KEA1 190822Z 32012KT M01/M03 A3017 RMK A01 T10071029  RH  085%=      5-min Rain = 0
KEA1 190823Z 32012KT M01/M03 A3017 RMK A01 T10061029  RH  084%=      5-min Rain = 0
KEA1 190824Z 32012KT M01/M03 A3017 RMK A01 T10061029  RH  084%=      5-min Rain = 0
KEA1 190825Z 32011KT M01/M03 A3017 RMK A01 T10061029  RH  084%=      5-min Rain = 0
KEA1 190826Z 32012KT M01/M03 A3016 RMK A01 T10061029  RH  084%=      5-min Rain = 0
KEA1 190827Z 31011KT M01/M03 A3016 RMK A01 T10061029  RH  084%=      5-min Rain = 0
KEA1 190828Z 32013KT M01/M03 A3017 RMK A01 T10061030  RH  084%=      5-min Rain = 0
KEA1 190829Z 32013KT M01/M03 A3017 RMK A01 T10071030  RH  085%=      5-min Rain = 0
KEA1 190830Z 32013KT M01/M03 A3016 RMK A01 T10061029  RH  084%=      5-min Rain = 0
KEA1 190831Z 32011KT M01/M03 A3016 RMK A01 T10071030  RH  084%=      5-min Rain = 0
KEA1 190832Z 32011KT M01/M03 A3016 RMK A01 T10071030  RH  085%=      5-min Rain = 0
KEA1 190833Z 32011KT M01/M03 A3016 RMK A01 T10071029  RH  085%=      5-min Rain = 0
KEA1 190834Z 32013KT M01/M03 A3016 RMK A01 T10071029  RH  085%=      5-min Rain = 0
KEA1 190835Z 32011KT M01/M03 A3016 RMK A01 T10071029  RH  085%=      5-min Rain = 0
KEA1 190836Z 32011KT M01/M03 A3017 RMK A01 T10071030  RH  085%=      5-min Rain = 0
KEA1 190837Z 32011KT M01/M03 A3017 RMK A01 T10081030  RH  085%=      5-min Rain = 0
KEA1 190838Z 32011KT M01/M03 A3017 RMK A01 T10081030  RH  085%=      5-min Rain = 0
KEA1 190839Z 32011KT M01/M03 A3017 RMK A01 T10081030  RH  086%=      5-min Rain = 0
KEA1 190840Z 32011KT M01/M03 A3017 RMK A01 T10091030  RH  086%=      5-min Rain = 0
KEA1 190841Z 31011KT M01/M03 A3017 RMK A01 T10091030  RH  086%=      5-min Rain = 0
KEA1 190842Z 31011KT M01/M03 A3017 RMK A01 T10091030  RH  086%=      5-min Rain = 0
KEA1 190843Z 31011KT M01/M03 A3017 RMK A01 T10101030  RH  086%=      5-min Rain = 0
KEA1 190844Z 31011KT M01/M03 A3017 RMK A01 T10111030  RH  087%=      5-min Rain = 0
KEA1 190845Z 31010KT M01/M03 A3017 RMK A01 T10111031  RH  087%=      5-min Rain = 0
KEA1 190846Z 31010KT M01/M03 A3017 RMK A01 T10111030  RH  087%=      5-min Rain = 0
KEA1 190847Z 31010KT M01/M03 A3017 RMK A01 T10121030  RH  087%=      5-min Rain = 0
KEA1 190848Z 31010KT M01/M03 A3017 RMK A01 T10121030  RH  087%=      5-min Rain = 0
KEA1 190849Z 31010KT M01/M03 A3017 RMK A01 T10121030  RH  088%=      5-min Rain = 0
KEA1 190850Z 31011KT M01/M03 A3017 RMK A01 T10131031  RH  088%=      5-min Rain = 0
KEA1 190851Z 30011KT M01/M03 A3017 RMK A01 T10131030  RH  088%=      5-min Rain = 0
KEA1 190852Z 30011KT M01/M03 A3017 RMK A01 T10131030  RH  088%=      5-min Rain = 0
KEA1 190853Z 30011KT M01/M03 A3017 RMK A01 T10131030  RH  088%=      5-min Rain = 0
KEA1 190854Z 30011KT M01/M03 A3017 RMK A01 T10131030  RH  089%=      5-min Rain = 0
KEA1 190855Z 30011KT M01/M03 A3017 RMK A01 T10131029  RH  089%=      5-min Rain = 0
KEA1 190856Z 30010KT M01/M03 A3017 RMK A01 T10121029  RH  089%=      5-min Rain = 0
KEA1 190857Z 30011KT M01/M03 A3017 RMK A01 T10131030  RH  088%=      5-min Rain = 0
KEA1 190858Z 30011KT M01/M03 A3017 RMK A01 T10131030  RH  088%=      5-min Rain = 0
KEA1 190859Z 30011KT M01/M03 A3017 RMK A01 T10131030  RH  088%=      5-min Rain = 0
KEA1 190900Z 30010KT M01/M03 A3016 RMK A01 T10131030  RH  088%=      5-min Rain = 0
KEA1 190901Z 31010KT M01/M03 A3016 RMK A01 T10141030  RH  088%=      5-min Rain = 0
KEA1 190902Z 31011KT M01/M03 A3016 RMK A01 T10131030  RH  088%=      5-min Rain = 0
KEA1 190903Z 31011KT M01/M03 A3016 RMK A01 T10131030  RH  088%=      5-min Rain = 0
KEA1 190904Z 31011KT M01/M03 A3016 RMK A01 T10131031  RH  088%=      5-min Rain = 0
KEA1 190905Z 30012KT M01/M03 A3017 RMK A01 T10131031  RH  088%=      5-min Rain = 0
KEA1 190906Z 31012KT M01/M03 A3017 RMK A01 T10121030  RH  088%=      5-min Rain = 0
KEA1 190907Z 31012KT M01/M03 A3017 RMK A01 T10121030  RH  087%=      5-min Rain = 0
KEA1 190908Z 31012KT M01/M03 A3017 RMK A01 T10111030  RH  087%=      5-min Rain = 0
KEA1 190909Z 30013KT M01/M03 A3017 RMK A01 T10111030  RH  087%=      5-min Rain = 0
KEA1 190910Z 30012KT M01/M03 A3017 RMK A01 T10111030  RH  087%=      5-min Rain = 0
KEA1 190911Z 30012KT M01/M03 A3017 RMK A01 T10111031  RH  087%=      5-min Rain = 0
KEA1 190912Z 31012KT M01/M03 A3017 RMK A01 T10121031  RH  087%=      5-min Rain = 0
KEA1 190913Z 30012KT M01/M03 A3017 RMK A01 T10111031  RH  087%=      5-min Rain = 0
KEA1 190914Z 31012KT M01/M03 A3017 RMK A01 T10121031  RH  087%=      5-min Rain = 0
KEA1 190915Z 31011KT M01/M03 A3017 RMK A01 T10111031  RH  087%=      5-min Rain = 0
KEA1 190916Z 31012KT M01/M03 A3017 RMK A01 T10111031  RH  087%=      5-min Rain = 0
KEA1 190917Z 31012KT M01/M03 A3017 RMK A01 T10111031  RH  087%=      5-min Rain = 0
KEA1 190918Z 31012KT M01/M03 A3017 RMK A01 T10111031  RH  086%=      5-min Rain = 0
KEA1 190919Z 31010KT M01/M03 A3017 RMK A01 T10111031  RH  086%=      5-min Rain = 0
KEA1 190920Z 31012KT M01/M03 A3017 RMK A01 T10111031  RH  086%=      5-min Rain = 0
KEA1 190921Z 31012KT M01/M03 A3017 RMK A01 T10111031  RH  087%=      5-min Rain = 0
KEA1 190922Z 31012KT M01/M03 A3017 RMK A01 T10121031  RH  087%=      5-min Rain = 0
KEA1 190923Z 31013KT M01/M03 A3017 RMK A01 T10111031  RH  087%=      5-min Rain = 0
KEA1 190924Z 31012KT M01/M03 A3017 RMK A01 T10111031  RH  086%=      5-min Rain = 0
KEA1 190925Z 31012KT M01/M03 A3017 RMK A01 T10111031  RH  086%=      5-min Rain = 0
KEA1 190926Z 31012KT M01/M03 A3017 RMK A01 T10111031  RH  086%=      5-min Rain = 0
KEA1 190927Z 31012KT M01/M03 A3017 RMK A01 T10111031  RH  086%=      5-min Rain = 0
KEA1 190928Z 31012KT M01/M03 A3017 RMK A01 T10111031  RH  086%=      5-min Rain = 0
KEA1 190929Z 30012KT M01/M03 A3017 RMK A01 T10111031  RH  086%=      5-min Rain = 0
KEA1 190930Z 31012KT M01/M03 A3017 RMK A01 T10111031  RH  086%=      5-min Rain = 0
KEA1 190931Z 30013KT M01/M03 A3018 RMK A01 T10111031  RH  086%=      5-min Rain = 0
KEA1 190932Z 30012KT M01/M03 A3018 RMK A01 T10101031  RH  086%=      5-min Rain = 0
KEA1 190933Z 30011KT M01/M03 A3018 RMK A01 T10111031  RH  086%=      5-min Rain = 0
KEA1 190934Z 30012KT M01/M03 A3018 RMK A01 T10111031  RH  086%=      5-min Rain = 0
KEA1 190935Z 30011KT M01/M03 A3018 RMK A01 T10111031  RH  086%=      5-min Rain = 0
KEA1 190936Z 30012KT M01/M03 A3018 RMK A01 T10111030  RH  086%=      5-min Rain = 0
KEA1 190937Z 30010KT M01/M03 A3018 RMK A01 T10101029  RH  087%=      5-min Rain = 0
KEA1 190938Z 30011KT M01/M03 A3018 RMK A01 T10101029  RH  087%=      5-min Rain = 0
KEA1 190939Z 30011KT M01/M03 A3018 RMK A01 T10101029  RH  087%=      5-min Rain = 0
KEA1 190940Z 29011KT M01/M03 A3018 RMK A01 T10091028  RH  087%=      5-min Rain = 0
KEA1 190941Z 30012KT M01/M03 A3018 RMK A01 T10091029  RH  087%=      5-min Rain = 0
KEA1 190942Z 29012KT M01/M03 A3018 RMK A01 T10091028  RH  087%=      5-min Rain = 0
KEA1 190943Z 29012KT M01/M03 A3018 RMK A01 T10091029  RH  086%=      5-min Rain = 0
KEA1 190944Z 29011KT M01/M03 A3018 RMK A01 T10091029  RH  086%=      5-min Rain = 0
KEA1 190945Z 29012KT M01/M03 A3018 RMK A01 T10101030  RH  086%=      5-min Rain = 0
KEA1 190946Z 30011KT M01/M03 A3018 RMK A01 T10101030  RH  087%=      5-min Rain = 0
KEA1 190947Z 29011KT M01/M03 A3018 RMK A01 T10101030  RH  087%=      5-min Rain = 0
KEA1 190948Z 29011KT M01/M03 A3019 RMK A01 T10101029  RH  087%=      5-min Rain = 0
KEA1 190949Z 29012KT M01/M03 A3019 RMK A01 T10101030  RH  087%=      5-min Rain = 0
KEA1 190950Z 29012KT M01/M03 A3019 RMK A01 T10101030  RH  087%=      5-min Rain = 0
KEA1 190951Z 29012KT M01/M03 A3019 RMK A01 T10101030  RH  087%=      5-min Rain = 0
KEA1 190952Z 29011KT M01/M03 A3019 RMK A01 T10101030  RH  087%=      5-min Rain = 0
KEA1 190953Z 29012KT M01/M03 A3019 RMK A01 T10111030  RH  087%=      5-min Rain = 0
KEA1 190954Z 29010KT M01/M03 A3019 RMK A01 T10111030  RH  087%=      5-min Rain = 0
KEA1 190955Z 29011KT M01/M03 A3019 RMK A01 T10111030  RH  087%=      5-min Rain = 0
KEA1 190956Z 29010KT M01/M03 A3019 RMK A01 T10111030  RH  087%=      5-min Rain = 0
KEA1 190957Z 29010KT M01/M03 A3019 RMK A01 T10121031  RH  087%=      5-min Rain = 0
KEA1 190958Z 29009KT M01/M03 A3019 RMK A01 T10121031  RH  087%=      5-min Rain = 0
KEA1 190959Z 29009KT M01/M03 A3019 RMK A01 T10131031  RH  087%=      5-min Rain = 0
KEA1 191000Z 29009KT M01/M03 A3019 RMK A01 T10131032  RH  087%=      5-min Rain = 0
KEA1 191001Z 29009KT M01/M03 A3019 RMK A01 T10131032  RH  087%=      5-min Rain = 0
KEA1 191002Z 29009KT M01/M03 A3019 RMK A01 T10141032  RH  088%=      5-min Rain = 0
KEA1 191003Z 29009KT M01/M03 A3019 RMK A01 T10141032  RH  088%=      5-min Rain = 0
KEA1 191004Z 29010KT M02/M03 A3019 RMK A01 T10151032  RH  088%=      5-min Rain = 0
KEA1 191005Z 29009KT M02/M03 A3019 RMK A01 T10151032  RH  088%=      5-min Rain = 0
KEA1 191006Z 28010KT M02/M03 A3019 RMK A01 T10151032  RH  088%=      5-min Rain = 0
KEA1 191007Z 28010KT M02/M03 A3019 RMK A01 T10151032  RH  088%=      5-min Rain = 0
KEA1 191008Z 28009KT M02/M03 A3019 RMK A01 T10151032  RH  088%=      5-min Rain = 0
KEA1 191009Z 28009KT M02/M03 A3019 RMK A01 T10151033  RH  088%=      5-min Rain = 0
KEA1 191010Z 28009KT M02/M03 A3019 RMK A01 T10161033  RH  088%=      5-min Rain = 0
KEA1 191011Z 28009KT M02/M03 A3019 RMK A01 T10161034  RH  088%=      5-min Rain = 0
KEA1 191012Z 28010KT M02/M03 A3019 RMK A01 T10171034  RH  088%=      5-min Rain = 0
KEA1 191013Z 28009KT M02/M03 A3019 RMK A01 T10171033  RH  088%=      5-min Rain = 0
KEA1 191014Z 28009KT M02/M03 A3019 RMK A01 T10171034  RH  088%=      5-min Rain = 0
KEA1 191015Z 28009KT M02/M03 A3019 RMK A01 T10181034  RH  088%=      5-min Rain = 0
KEA1 191016Z 27009KT M02/M03 A3019 RMK A01 T10181034  RH  089%=      5-min Rain = 0
KEA1 191017Z 27010KT M02/M03 A3019 RMK A01 T10181034  RH  089%=      5-min Rain = 0
KEA1 191018Z 27009KT M02/M03 A302 RMK A01 T10181034  RH  089%=      5-min Rain = 0
KEA1 191019Z 27009KT M02/M03 A302 RMK A01 T10181034  RH  089%=      5-min Rain = 0
KEA1 191020Z 27010KT M02/M04 A302 RMK A01 T10191035  RH  088%=      5-min Rain = 0
KEA1 191021Z 27009KT M02/M04 A302 RMK A01 T10191036  RH  088%=      5-min Rain = 0
KEA1 191022Z 27009KT M02/M04 A302 RMK A01 T10201037  RH  088%=      5-min Rain = 0
KEA1 191023Z 27010KT M02/M04 A302 RMK A01 T10201037  RH  088%=      5-min Rain = 0
KEA1 191024Z 27010KT M02/M04 A302 RMK A01 T10201037  RH  088%=      5-min Rain = 0
KEA1 191025Z 27011KT M02/M04 A302 RMK A01 T10201037  RH  088%=      5-min Rain = 0
KEA1 191026Z 27010KT M02/M04 A302 RMK A01 T10201037  RH  088%=      5-min Rain = 0
KEA1 191027Z 27010KT M02/M04 A302 RMK A01 T10191037  RH  088%=      5-min Rain = 0
KEA1 191028Z 27010KT M02/M04 A302 RMK A01 T10191037  RH  088%=      5-min Rain = 0
KEA1 191029Z 27010KT M02/M04 A302 RMK A01 T10191037  RH  087%=      5-min Rain = 0
KEA1 191030Z 27010KT M02/M04 A302 RMK A01 T10191037  RH  087%=      5-min Rain = 0
KEA1 191031Z 27010KT M02/M04 A302 RMK A01 T10191038  RH  087%=      5-min Rain = 0
KEA1 191032Z 27010KT M02/M04 A302 RMK A01 T10191038  RH  087%=      5-min Rain = 0
KEA1 191033Z 27009KT M02/M04 A302 RMK A01 T10191037  RH  087%=      5-min Rain = 0
KEA1 191034Z 27010KT M02/M04 A302 RMK A01 T10191038  RH  087%=      5-min Rain = 0
KEA1 191035Z 27009KT M02/M04 A302 RMK A01 T10201038  RH  087%=      5-min Rain = 0
KEA1 191036Z 27009KT M02/M04 A302 RMK A01 T10201038  RH  088%=      5-min Rain = 0
KEA1 191037Z 27009KT M02/M04 A302 RMK A01 T10201038  RH  088%=      5-min Rain = 0
KEA1 191038Z 27009KT M02/M04 A302 RMK A01 T10201038  RH  088%=      5-min Rain = 0
KEA1 191039Z 27009KT M02/M04 A302 RMK A01 T10201038  RH  088%=      5-min Rain = 0
KEA1 191040Z 27009KT M02/M04 A302 RMK A01 T10201038  RH  088%=      5-min Rain = 0
KEA1 191041Z 27009KT M02/M04 A302 RMK A01 T10201038  RH  088%=      5-min Rain = 0
KEA1 191042Z 27009KT M02/M04 A302 RMK A01 T10201038  RH  088%=      5-min Rain = 0
KEA1 191043Z 27009KT M02/M04 A302 RMK A01 T10201038  RH  088%=      5-min Rain = 0
KEA1 191044Z 27008KT M02/M04 A302 RMK A01 T10201038  RH  088%=      5-min Rain = 0
KEA1 191045Z 28008KT M02/M04 A302 RMK A01 T10201038  RH  088%=      5-min Rain = 0
KEA1 191046Z 28008KT M02/M04 A302 RMK A01 T10201038  RH  088%=      5-min Rain = 0
KEA1 191047Z 28008KT M02/M04 A302 RMK A01 T10201037  RH  088%=      5-min Rain = 0
KEA1 191048Z 28007KT M02/M04 A302 RMK A01 T10201037  RH  088%=      5-min Rain = 0
KEA1 191049Z 28007KT M02/M04 A302 RMK A01 T10191037  RH  088%=      5-min Rain = 0
KEA1 191050Z 29008KT M02/M04 A302 RMK A01 T10191037  RH  088%=      5-min Rain = 0
KEA1 191051Z 29008KT M02/M04 A302 RMK A01 T10191037  RH  088%=      5-min Rain = 0
KEA1 191052Z 29008KT M02/M04 A302 RMK A01 T10191036  RH  088%=      5-min Rain = 0
KEA1 191053Z 30009KT M02/M04 A302 RMK A01 T10181036  RH  088%=      5-min Rain = 0
KEA1 191054Z 30009KT M02/M04 A302 RMK A01 T10171035  RH  087%=      5-min Rain = 0
KEA1 191055Z 30009KT M02/M04 A302 RMK A01 T10151035  RH  087%=      5-min Rain = 0
KEA1 191056Z 31009KT M01/M03 A302 RMK A01 T10141034  RH  086%=      5-min Rain = 0
KEA1 191057Z 31009KT M01/M04 A302 RMK A01 T10131035  RH  085%=      5-min Rain = 0
KEA1 191058Z 31009KT M01/M04 A302 RMK A01 T10141035  RH  085%=      5-min Rain = 0
KEA1 191059Z 31010KT M01/M04 A302 RMK A01 T10131035  RH  085%=      5-min Rain = 0
KEA1 191100Z 31010KT M01/M03 A302 RMK A01 T10111033  RH  085%=      5-min Rain = 0
KEA1 191101Z 31010KT M01/M03 A302 RMK A01 T10101033  RH  084%=      5-min Rain = 0
KEA1 191102Z 32010KT M01/M03 A302 RMK A01 T10091033  RH  084%=      5-min Rain = 0
KEA1 191103Z 32009KT M01/M03 A302 RMK A01 T10091033  RH  084%=      5-min Rain = 0
KEA1 191104Z 31009KT M01/M03 A302 RMK A01 T10091033  RH  084%=      5-min Rain = 0
KEA1 191105Z 32010KT M01/M03 A302 RMK A01 T10091033  RH  084%=      5-min Rain = 0
KEA1 191106Z 31010KT M01/M03 A302 RMK A01 T10091033  RH  084%=      5-min Rain = 0
KEA1 191107Z 31011KT M01/M03 A302 RMK A01 T10091033  RH  084%=      5-min Rain = 0
KEA1 191108Z 31011KT M01/M03 A302 RMK A01 T10081033  RH  084%=      5-min Rain = 0
KEA1 191109Z 31011KT M01/M03 A302 RMK A01 T10081033  RH  083%=      5-min Rain = 0
KEA1 191110Z 31011KT M01/M03 A302 RMK A01 T10071032  RH  083%=      5-min Rain = 0
KEA1 191111Z 31011KT M01/M03 A302 RMK A01 T10061032  RH  082%=      5-min Rain = 0
KEA1 191112Z 31011KT M01/M03 A302 RMK A01 T10051032  RH  082%=      5-min Rain = 0
KEA1 191113Z 31012KT M01/M03 A302 RMK A01 T10051032  RH  082%=      5-min Rain = 0
KEA1 191114Z 31011KT M01/M03 A302 RMK A01 T10051033  RH  082%=      5-min Rain = 0
KEA1 191115Z 31011KT M01/M03 A302 RMK A01 T10051033  RH  081%=      5-min Rain = 0
KEA1 191116Z 30012KT M01/M03 A302 RMK A01 T10051033  RH  081%=      5-min Rain = 0
KEA1 191117Z 30011KT M01/M03 A302 RMK A01 T10051032  RH  082%=      5-min Rain = 0
KEA1 191118Z 30011KT M00/M03 A302 RMK A01 T10041032  RH  081%=      5-min Rain = 0
KEA1 191119Z 30010KT M00/M03 A302 RMK A01 T10041032  RH  081%=      5-min Rain = 0
KEA1 191120Z 30010KT M00/M03 A302 RMK A01 T10041032  RH  082%=      5-min Rain = 0
KEA1 191121Z 30010KT M01/M03 A302 RMK A01 T10051032  RH  082%=      5-min Rain = 0
KEA1 191122Z 30010KT M00/M03 A302 RMK A01 T10041031  RH  082%=      5-min Rain = 0
KEA1 191123Z 30009KT M01/M03 A302 RMK A01 T10051031  RH  082%=      5-min Rain = 0
KEA1 191124Z 30010KT M01/M03 A302 RMK A01 T10051031  RH  083%=      5-min Rain = 0
KEA1 191125Z 30010KT M01/M03 A302 RMK A01 T10051031  RH  083%=      5-min Rain = 0
KEA1 191126Z 30010KT M01/M03 A302 RMK A01 T10051031  RH  082%=      5-min Rain = 0
KEA1 191127Z 30009KT M01/M03 A302 RMK A01 T10051031  RH  082%=      5-min Rain = 0
KEA1 191128Z 30009KT M01/M03 A302 RMK A01 T10051032  RH  082%=      5-min Rain = 0
KEA1 191129Z 30010KT M01/M03 A302 RMK A01 T10051032  RH  082%=      5-min Rain = 0
KEA1 191130Z 30009KT M01/M03 A302 RMK A01 T10061032  RH  083%=      5-min Rain = 0
KEA1 191131Z 30009KT M01/M03 A302 RMK A01 T10061032  RH  083%=      5-min Rain = 0
KEA1 191132Z 30010KT M01/M03 A302 RMK A01 T10071032  RH  083%=      5-min Rain = 0
KEA1 191133Z 30010KT M01/M03 A302 RMK A01 T10071033  RH  083%=      5-min Rain = 0
KEA1 191134Z 31009KT M01/M03 A302 RMK A01 T10081033  RH  083%=      5-min Rain = 0
KEA1 191135Z 31010KT M01/M03 A302 RMK A01 T10071033  RH  083%=      5-min Rain = 0
KEA1 191136Z 30011KT M01/M03 A302 RMK A01 T10071033  RH  082%=      5-min Rain = 0
KEA1 191137Z 30011KT M01/M03 A302 RMK A01 T10081034  RH  083%=      5-min Rain = 0
KEA1 191138Z 30011KT M01/M03 A302 RMK A01 T10081034  RH  083%=      5-min Rain = 0
KEA1 191139Z 30011KT M01/M03 A302 RMK A01 T10081034  RH  083%=      5-min Rain = 0
KEA1 191140Z 30010KT M01/M03 A302 RMK A01 T10081033  RH  083%=      5-min Rain = 0
KEA1 191141Z 30010KT M01/M03 A302 RMK A01 T10071032  RH  083%=      5-min Rain = 0
KEA1 191142Z 29010KT M01/M03 A302 RMK A01 T10071032  RH  083%=      5-min Rain = 0
KEA1 191143Z 29011KT M01/M03 A302 RMK A01 T10071033  RH  083%=      5-min Rain = 0
KEA1 191144Z 30010KT M01/M03 A302 RMK A01 T10071033  RH  083%=      5-min Rain = 0
KEA1 191145Z 29010KT M01/M03 A302 RMK A01 T10071033  RH  083%=      5-min Rain = 0
KEA1 191146Z 30011KT M01/M03 A302 RMK A01 T10071033  RH  083%=      5-min Rain = 0
KEA1 191147Z 30010KT M01/M03 A302 RMK A01 T10071033  RH  083%=      5-min Rain = 0
KEA1 191148Z 30010KT M01/M03 A302 RMK A01 T10071033  RH  083%=      5-min Rain = 0
KEA1 191149Z 29011KT M01/M03 A302 RMK A01 T10081034  RH  083%=      5-min Rain = 0
KEA1 191150Z 29011KT M01/M03 A3021 RMK A01 T10071033  RH  083%=      5-min Rain = 0
KEA1 191151Z 29012KT M01/M03 A3021 RMK A01 T10071033  RH  082%=      5-min Rain = 0
KEA1 191152Z 29011KT M01/M03 A3021 RMK A01 T10061033  RH  082%=      5-min Rain = 0
KEA1 191153Z 29012KT M01/M03 A3021 RMK A01 T10061033  RH  082%=      5-min Rain = 0
KEA1 191154Z 29011KT M01/M03 A3021 RMK A01 T10061033  RH  082%=      5-min Rain = 0
KEA1 191155Z 29011KT M01/M03 A3021 RMK A01 T10071033  RH  082%=      5-min Rain = 0
KEA1 191156Z 29011KT M01/M03 A3021 RMK A01 T10071033  RH  082%=      5-min Rain = 0
KEA1 191157Z 29011KT M01/M03 A3021 RMK A01 T10071034  RH  082%=      5-min Rain = 0
KEA1 191158Z 29010KT M01/M03 A3021 RMK A01 T10071034  RH  082%=      5-min Rain = 0
KEA1 191159Z 29011KT M01/M03 A3021 RMK A01 T10081034  RH  082%=      5-min Rain = 0
KEA1 191200Z 29010KT M01/M03 A3021 RMK A01 T10081034  RH  083%=      5-min Rain = 0
KEA1 191201Z 29011KT M01/M03 A3021 RMK A01 T10081034  RH  083%=      5-min Rain = 0
KEA1 191202Z 29011KT M01/M03 A3021 RMK A01 T10081034  RH  083%=      5-min Rain = 0
KEA1 191203Z 29011KT M01/M03 A3021 RMK A01 T10091034  RH  083%=      5-min Rain = 0
KEA1 191204Z 29011KT M01/M04 A3022 RMK A01 T10091035  RH  083%=      5-min Rain = 0
KEA1 191205Z 29011KT M01/M04 A3021 RMK A01 T10091035  RH  083%=      5-min Rain = 0
KEA1 191206Z 29010KT M01/M04 A3021 RMK A01 T10081035  RH  082%=      5-min Rain = 0
KEA1 191207Z 29010KT M01/M04 A3021 RMK A01 T10081035  RH  082%=      5-min Rain = 0
KEA1 191208Z 29010KT M01/M04 A3021 RMK A01 T10091035  RH  082%=      5-min Rain = 0
KEA1 191209Z 30010KT M01/M04 A3021 RMK A01 T10091036  RH  082%=      5-min Rain = 0
KEA1 191210Z 30010KT M01/M04 A3021 RMK A01 T10091036  RH  082%=      5-min Rain = 0
KEA1 191211Z 30010KT M01/M04 A3021 RMK A01 T10081036  RH  082%=      5-min Rain = 0
KEA1 191212Z 30010KT M01/M04 A3021 RMK A01 T10081036  RH  082%=      5-min Rain = 0
KEA1 191213Z 30010KT M01/M04 A3021 RMK A01 T10081036  RH  082%=      5-min Rain = 0
KEA1 191214Z 30010KT M01/M04 A3022 RMK A01 T10091036  RH  082%=      5-min Rain = 0
KEA1 191215Z 30011KT M01/M04 A3022 RMK A01 T10091036  RH  082%=      5-min Rain = 0
KEA1 191216Z 30010KT M01/M04 A3022 RMK A01 T10091035  RH  082%=      5-min Rain = 0
KEA1 191217Z 30010KT M01/M04 A3022 RMK A01 T10081035  RH  082%=      5-min Rain = 0
KEA1 191218Z 30010KT M01/M04 A3022 RMK A01 T10081035  RH  082%=      5-min Rain = 0
KEA1 191219Z 30010KT M01/M04 A3022 RMK A01 T10081035  RH  082%=      5-min Rain = 0
KEA1 191220Z 30010KT M01/M04 A3022 RMK A01 T10091035  RH  082%=      5-min Rain = 0
KEA1 191221Z 30010KT M01/M04 A3022 RMK A01 T10081035  RH  082%=      5-min Rain = 0
KEA1 191222Z 30010KT M01/M04 A3022 RMK A01 T10091035  RH  082%=      5-min Rain = 0
KEA1 191223Z 30010KT M01/M04 A3022 RMK A01 T10091035  RH  082%=      5-min Rain = 0
KEA1 191224Z 29010KT M01/M04 A3022 RMK A01 T10091035  RH  082%=      5-min Rain = 0
KEA1 191225Z 29010KT M01/M04 A3022 RMK A01 T10091035  RH  083%=      5-min Rain = 0
KEA1 191226Z 29009KT M01/M04 A3022 RMK A01 T10091035  RH  082%=      5-min Rain = 0
KEA1 191227Z 29009KT M01/M04 A3022 RMK A01 T10091035  RH  082%=      5-min Rain = 0
KEA1 191228Z 29009KT M01/M04 A3022 RMK A01 T10101036  RH  082%=      5-min Rain = 0
KEA1 191229Z 30008KT M01/M04 A3023 RMK A01 T10111036  RH  083%=      5-min Rain = 0
KEA1 191230Z 30008KT M01/M04 A3023 RMK A01 T10121037  RH  083%=      5-min Rain = 0
KEA1 191231Z 29009KT M01/M04 A3023 RMK A01 T10121036  RH  084%=      5-min Rain = 0
KEA1 191232Z 29009KT M01/M04 A3023 RMK A01 T10111036  RH  083%=      5-min Rain = 0
KEA1 191233Z 30007KT M01/M04 A3023 RMK A01 T10111036  RH  083%=      5-min Rain = 0
KEA1 191234Z 29009KT M01/M04 A3023 RMK A01 T10121036  RH  084%=      5-min Rain = 0
KEA1 191235Z 29009KT M01/M04 A3023 RMK A01 T10131037  RH  084%=      5-min Rain = 0
KEA1 191236Z 29008KT M01/M04 A3023 RMK A01 T10121036  RH  084%=      5-min Rain = 0
KEA1 191237Z 29009KT M01/M04 A3023 RMK A01 T10131037  RH  084%=      5-min Rain = 0
KEA1 191238Z 29008KT M01/M04 A3023 RMK A01 T10131037  RH  084%=      5-min Rain = 0
KEA1 191239Z 29008KT M01/M04 A3023 RMK A01 T10141037  RH  084%=      5-min Rain = 0
KEA1 191240Z 29008KT M01/M04 A3023 RMK A01 T10131036  RH  084%=      5-min Rain = 0
KEA1 191241Z 29009KT M01/M04 A3023 RMK A01 T10141037  RH  085%=      5-min Rain = 0
KEA1 191242Z 29009KT M01/M04 A3023 RMK A01 T10141037  RH  085%=      5-min Rain = 0
KEA1 191243Z 29009KT M01/M04 A3023 RMK A01 T10141037  RH  084%=      5-min Rain = 0
KEA1 191244Z 30009KT M01/M04 A3023 RMK A01 T10131036  RH  084%=      5-min Rain = 0
KEA1 191245Z 30008KT M01/M04 A3023 RMK A01 T10131037  RH  084%=      5-min Rain = 0
KEA1 191246Z 30009KT M01/M04 A3023 RMK A01 T10141038  RH  084%=      5-min Rain = 0
KEA1 191247Z 30010KT M02/M04 A3023 RMK A01 T10151038  RH  085%=      5-min Rain = 0
KEA1 191248Z 31010KT M01/M04 A3023 RMK A01 T10141036  RH  085%=      5-min Rain = 0
KEA1 191249Z 31011KT M01/M04 A3023 RMK A01 T10121036  RH  084%=      5-min Rain = 0
KEA1 191250Z 31011KT M01/M04 A3024 RMK A01 T10121036  RH  084%=      5-min Rain = 0
KEA1 191251Z 31011KT M01/M04 A3024 RMK A01 T10111036  RH  083%=      5-min Rain = 0
KEA1 191252Z 31011KT M01/M04 A3024 RMK A01 T10111036  RH  083%=      5-min Rain = 0
KEA1 191253Z 31012KT M01/M04 A3024 RMK A01 T10111036  RH  083%=      5-min Rain = 0
KEA1 191254Z 31012KT M01/M04 A3024 RMK A01 T10101036  RH  083%=      5-min Rain = 0
KEA1 191255Z 31013KT M01/M04 A3024 RMK A01 T10091035  RH  083%=      5-min Rain = 0
KEA1 191256Z 31012KT M01/M04 A3024 RMK A01 T10091035  RH  082%=      5-min Rain = 0
KEA1 191257Z 31012KT M01/M04 A3024 RMK A01 T10091036  RH  082%=      5-min Rain = 0
KEA1 191258Z 31012KT M01/M04 A3024 RMK A01 T10081035  RH  082%=      5-min Rain = 0
KEA1 191259Z 30012KT M01/M04 A3024 RMK A01 T10091036  RH  082%=      5-min Rain = 0
KEA1 191300Z 31012KT M01/M04 A3025 RMK A01 T10091036  RH  082%=      5-min Rain = 0
KEA1 191301Z 31011KT M01/M04 A3025 RMK A01 T10081036  RH  082%=      5-min Rain = 0
KEA1 191302Z 30012KT M01/M04 A3025 RMK A01 T10081036  RH  082%=      5-min Rain = 0
KEA1 191303Z 31012KT M01/M04 A3025 RMK A01 T10081036  RH  082%=      5-min Rain = 0
KEA1 191304Z 30012KT M01/M04 A3025 RMK A01 T10081035  RH  082%=      5-min Rain = 0
KEA1 191305Z 30011KT M01/M04 A3025 RMK A01 T10081036  RH  081%=      5-min Rain = 0
KEA1 191306Z 31012KT M01/M04 A3025 RMK A01 T10081036  RH  081%=      5-min Rain = 0
KEA1 191307Z 31011KT M01/M04 A3025 RMK A01 T10081036  RH  081%=      5-min Rain = 0
KEA1 191308Z 31011KT M01/M04 A3025 RMK A01 T10081036  RH  081%=      5-min Rain = 0
KEA1 191309Z 30011KT M01/M04 A3025 RMK A01 T10071036  RH  081%=      5-min Rain = 0
KEA1 191310Z 30011KT M01/M04 A3025 RMK A01 T10081036  RH  081%=      5-min Rain = 0
KEA1 191311Z 31010KT M01/M04 A3025 RMK A01 T10081036  RH  081%=      5-min Rain = 0
KEA1 191312Z 30010KT M01/M04 A3025 RMK A01 T10081036  RH  081%=      5-min Rain = 0
KEA1 191313Z 30009KT M01/M04 A3025 RMK A01 T10081036  RH  081%=      5-min Rain = 0
KEA1 191314Z 30010KT M01/M04 A3025 RMK A01 T10081037  RH  081%=      5-min Rain = 0
KEA1 191315Z 30010KT M01/M04 A3025 RMK A01 T10091037  RH  081%=      5-min Rain = 0
KEA1 191316Z 30010KT M01/M04 A3025 RMK A01 T10091037  RH  082%=      5-min Rain = 0
KEA1 191317Z 30010KT M01/M04 A3025 RMK A01 T10101037  RH  082%=      5-min Rain = 0
KEA1 191318Z 30009KT M01/M04 A3025 RMK A01 T10101037  RH  082%=      5-min Rain = 0
KEA1 191319Z 30010KT M01/M04 A3025 RMK A01 T10101037  RH  082%=      5-min Rain = 0
KEA1 191320Z 30010KT M01/M04 A3025 RMK A01 T10111037  RH  082%=      5-min Rain = 0
KEA1 191321Z 30009KT M01/M04 A3025 RMK A01 T10111037  RH  082%=      5-min Rain = 0
KEA1 191322Z 30009KT M01/M04 A3025 RMK A01 T10111037  RH  083%=      5-min Rain = 0
KEA1 191323Z 30010KT M01/M04 A3025 RMK A01 T10121037  RH  083%=      5-min Rain = 0
KEA1 191324Z 30010KT M01/M04 A3026 RMK A01 T10121037  RH  083%=      5-min Rain = 0
KEA1 191325Z 30009KT M01/M04 A3026 RMK A01 T10111037  RH  083%=      5-min Rain = 0
KEA1 191326Z 30010KT M01/M04 A3026 RMK A01 T10111037  RH  082%=      5-min Rain = 0
KEA1 191327Z 30009KT M01/M04 A3026 RMK A01 T10101037  RH  082%=      5-min Rain = 0
KEA1 191328Z 30009KT M01/M04 A3026 RMK A01 T10101038  RH  081%=      5-min Rain = 0
KEA1 191329Z 30010KT M01/M04 A3025 RMK A01 T10091038  RH  081%=      5-min Rain = 0
KEA1 191330Z 30009KT M01/M04 A3025 RMK A01 T10081037  RH  081%=      5-min Rain = 0
KEA1 191331Z 30009KT M01/M04 A3026 RMK A01 T10081038  RH  081%=      5-min Rain = 0
KEA1 191332Z 30010KT M01/M04 A3026 RMK A01 T10081038  RH  081%=      5-min Rain = 0
KEA1 191333Z 30010KT M01/M04 A3026 RMK A01 T10081037  RH  081%=      5-min Rain = 0
KEA1 191334Z 30010KT M01/M04 A3026 RMK A01 T10061036  RH  080%=      5-min Rain = 0
KEA1 191335Z 30011KT M01/M04 A3026 RMK A01 T10061037  RH  080%=      5-min Rain = 0
KEA1 191336Z 30010KT M01/M04 A3026 RMK A01 T10061037  RH  080%=      5-min Rain = 0
KEA1 191337Z 30010KT M01/M04 A3026 RMK A01 T10061036  RH  080%=      5-min Rain = 0
KEA1 191338Z 29010KT M01/M04 A3026 RMK A01 T10061036  RH  080%=      5-min Rain = 0
KEA1 191339Z 29010KT M01/M04 A3026 RMK A01 T10051036  RH  080%=      5-min Rain = 0
KEA1 191340Z 29010KT M01/M04 A3026 RMK A01 T10051036  RH  080%=      5-min Rain = 0
KEA1 191341Z 29011KT M01/M04 A3026 RMK A01 T10061037  RH  080%=      5-min Rain = 0
KEA1 191342Z 29011KT M01/M04 A3026 RMK A01 T10061037  RH  080%=      5-min Rain = 0
KEA1 191343Z 29011KT M01/M04 A3026 RMK A01 T10071037  RH  080%=      5-min Rain = 0
KEA1 191344Z 29011KT M01/M04 A3026 RMK A01 T10081037  RH  080%=      5-min Rain = 0
KEA1 191345Z 29012KT M01/M04 A3026 RMK A01 T10071038  RH  080%=      5-min Rain = 0
KEA1 191346Z 30011KT M01/M04 A3026 RMK A01 T10071038  RH  080%=      5-min Rain = 0
KEA1 191347Z 30011KT M01/M04 A3026 RMK A01 T10071037  RH  080%=      5-min Rain = 0
KEA1 191348Z 30011KT M01/M04 A3026 RMK A01 T10071037  RH  080%=      5-min Rain = 0
KEA1 191349Z 30012KT M01/M04 A3026 RMK A01 T10081037  RH  080%=      5-min Rain = 0
KEA1 191350Z 30011KT M01/M04 A3026 RMK A01 T10081038  RH  080%=      5-min Rain = 0
KEA1 191351Z 29012KT M01/M04 A3026 RMK A01 T10081038  RH  080%=      5-min Rain = 0
KEA1 191352Z 29012KT M01/M04 A3026 RMK A01 T10061037  RH  080%=      5-min Rain = 0
KEA1 191353Z 29011KT M01/M04 A3026 RMK A01 T10061037  RH  080%=      5-min Rain = 0
KEA1 191354Z 29012KT M01/M04 A3026 RMK A01 T10061037  RH  080%=      5-min Rain = 0
KEA1 191355Z 29012KT M01/M04 A3026 RMK A01 T10061037  RH  080%=      5-min Rain = 0
KEA1 191356Z 29012KT M01/M04 A3026 RMK A01 T10061037  RH  080%=      5-min Rain = 0
KEA1 191357Z 29011KT M01/M04 A3026 RMK A01 T10061037  RH  080%=      5-min Rain = 0
KEA1 191358Z 29011KT M01/M04 A3026 RMK A01 T10071037  RH  080%=      5-min Rain = 0
KEA1 191359Z 29012KT M01/M04 A3026 RMK A01 T10071037  RH  080%=      5-min Rain = 0
KEA1 191400Z 29011KT M01/M04 A3026 RMK A01 T10071037  RH  080%=      5-min Rain = 0
KEA1 191401Z 29011KT M01/M04 A3026 RMK A01 T10071037  RH  080%=      5-min Rain = 0
KEA1 191402Z 28012KT M01/M04 A3026 RMK A01 T10081037  RH  080%=      5-min Rain = 0
KEA1 191403Z 29011KT M01/M04 A3027 RMK A01 T10081037  RH  080%=      5-min Rain = 0
KEA1 191404Z 29013KT M01/M04 A3027 RMK A01 T10081038  RH  080%=      5-min Rain = 0
KEA1 191405Z 29013KT M01/M04 A3027 RMK A01 T10071038  RH  080%=      5-min Rain = 0
KEA1 191406Z 28013KT M01/M04 A3027 RMK A01 T10071038  RH  080%=      5-min Rain = 0
KEA1 191407Z 28012KT M01/M04 A3027 RMK A01 T10071038  RH  080%=      5-min Rain = 0
KEA1 191408Z 28012KT M01/M04 A3027 RMK A01 T10071038  RH  079%=      5-min Rain = 0
KEA1 191409Z 28012KT M01/M04 A3027 RMK A01 T10081039  RH  079%=      5-min Rain = 0
KEA1 191410Z 29013KT M01/M04 A3027 RMK A01 T10081039  RH  080%=      5-min Rain = 0
KEA1 191411Z 28012KT M01/M04 A3027 RMK A01 T10081039  RH  080%=      5-min Rain = 0
KEA1 191412Z 28013KT M01/M04 A3027 RMK A01 T10081039  RH  080%=      5-min Rain = 0
KEA1 191413Z 29011KT M01/M04 A3027 RMK A01 T10081039  RH  080%=      5-min Rain = 0
KEA1 191414Z 29012KT M01/M04 A3027 RMK A01 T10081038  RH  080%=      5-min Rain = 0
KEA1 191415Z 29012KT M01/M04 A3027 RMK A01 T10081039  RH  080%=      5-min Rain = 0
KEA1 191416Z 29012KT M01/M04 A3027 RMK A01 T10081038  RH  080%=      5-min Rain = 0
KEA1 191417Z 28012KT M01/M04 A3027 RMK A01 T10071038  RH  079%=      5-min Rain = 0
KEA1 191418Z 28012KT M01/M04 A3027 RMK A01 T10071038  RH  079%=      5-min Rain = 0
KEA1 191419Z 29012KT M01/M04 A3027 RMK A01 T10061038  RH  079%=      5-min Rain = 0
KEA1 191420Z 29011KT M01/M04 A3028 RMK A01 T10061038  RH  079%=      5-min Rain = 0
KEA1 191421Z 28011KT M01/M04 A3028 RMK A01 T10061038  RH  079%=      5-min Rain = 0
KEA1 191422Z 28011KT M01/M04 A3028 RMK A01 T10051038  RH  079%=      5-min Rain = 0
KEA1 191423Z 28010KT M01/M04 A3028 RMK A01 T10061038  RH  079%=      5-min Rain = 0
KEA1 191424Z 28011KT M01/M04 A3028 RMK A01 T10061038  RH  079%=      5-min Rain = 0
KEA1 191425Z 28011KT M01/M04 A3028 RMK A01 T10051038  RH  079%=      5-min Rain = 0
KEA1 191426Z 28011KT M01/M04 A3028 RMK A01 T10051037  RH  079%=      5-min Rain = 0
KEA1 191427Z 28011KT M01/M04 A3028 RMK A01 T10051037  RH  079%=      5-min Rain = 0
KEA1 191428Z 28011KT M01/M04 A3028 RMK A01 T10051037  RH  079%=      5-min Rain = 0
KEA1 191429Z 28011KT M01/M04 A3028 RMK A01 T10051037  RH  079%=      5-min Rain = 0
KEA1 191430Z 28011KT M00/M04 A3028 RMK A01 T10041037  RH  079%=      5-min Rain = 0
KEA1 191431Z 28012KT M00/M04 A3028 RMK A01 T10031036  RH  078%=      5-min Rain = 0
KEA1 191432Z 28012KT M00/M04 A3028 RMK A01 T10021036  RH  078%=      5-min Rain = 0
KEA1 191433Z 28010KT M00/M04 A3028 RMK A01 T10021036  RH  078%=      5-min Rain = 0
KEA1 191434Z 28011KT M00/M04 A3029 RMK A01 T10021036  RH  078%=      5-min Rain = 0
KEA1 191435Z 28011KT M00/M04 A3029 RMK A01 T10021036  RH  078%=      5-min Rain = 0
KEA1 191436Z 29011KT M00/M04 A3029 RMK A01 T10011036  RH  078%=      5-min Rain = 0
KEA1 191437Z 28011KT M00/M04 A3029 RMK A01 T10011035  RH  078%=      5-min Rain = 0
KEA1 191438Z 28011KT M00/M04 A3029 RMK A01 T10011035  RH  078%=      5-min Rain = 0
KEA1 191439Z 28011KT M00/M04 A3029 RMK A01 T10011035  RH  078%=      5-min Rain = 0
KEA1 191440Z 28011KT 00/03 A3029 RMK A01 T00-00-34  RH  078%=      5-min Rain = 0
KEA1 191441Z 27010KT 00/03 A3029 RMK A01 T00000-34  RH  078%=      5-min Rain = 0
KEA1 191442Z 28009KT 00/03 A3029 RMK A01 T00000-33  RH  078%=      5-min Rain = 0
KEA1 191443Z 27010KT 00/M03 A3029 RMK A01 T00011032  RH  078%=      5-min Rain = 0
KEA1 191444Z 27011KT 00/M03 A3029 RMK A01 T00011032  RH  078%=      5-min Rain = 0
KEA1 191445Z 28011KT 00/M03 A3029 RMK A01 T00011032  RH  078%=      5-min Rain = 0
KEA1 191446Z 28012KT 00/M03 A3029 RMK A01 T00011032  RH  078%=      5-min Rain = 0
KEA1 191447Z 27011KT 00/M03 A303 RMK A01 T00021032  RH  078%=      5-min Rain = 0
KEA1 191448Z 28010KT 00/M03 A303 RMK A01 T00021032  RH  078%=      5-min Rain = 0
KEA1 191449Z 28010KT 00/M03 A303 RMK A01 T00031031  RH  078%=      5-min Rain = 0
KEA1 191450Z 27011KT 00/M03 A303 RMK A01 T00031032  RH  077%=      5-min Rain = 0
KEA1 191451Z 27010KT 00/M03 A303 RMK A01 T00041031  RH  078%=      5-min Rain = 0
KEA1 191452Z 28012KT 00/M03 A303 RMK A01 T00041031  RH  077%=      5-min Rain = 0
KEA1 191453Z 27011KT 01/M03 A303 RMK A01 T00051031  RH  077%=      5-min Rain = 0
KEA1 191454Z 28012KT 01/M03 A303 RMK A01 T00061030  RH  077%=      5-min Rain = 0
KEA1 191455Z 27011KT 01/M03 A303 RMK A01 T00071030  RH  076%=      5-min Rain = 0
KEA1 191456Z 27011KT 01/M03 A303 RMK A01 T00071030  RH  076%=      5-min Rain = 0
KEA1 191457Z 27012KT 01/M03 A303 RMK A01 T00081030  RH  076%=      5-min Rain = 0
KEA1 191458Z 28010KT 01/M03 A303 RMK A01 T00091029  RH  076%=      5-min Rain = 0
KEA1 191459Z 28013KT 01/M03 A303 RMK A01 T00091029  RH  075%=      5-min Rain = 0
KEA1 191500Z 28012KT 01/M03 A3031 RMK A01 T00101030  RH  075%=      5-min Rain = 0
KEA1 191501Z 28012KT 01/M03 A3031 RMK A01 T00111030  RH  074%=      5-min Rain = 0
KEA1 191502Z 28012KT 01/M03 A3031 RMK A01 T00111030  RH  074%=      5-min Rain = 0
KEA1 191503Z 28012KT 01/M03 A3031 RMK A01 T00121029  RH  074%=      5-min Rain = 0
KEA1 191504Z 28011KT 01/M03 A3031 RMK A01 T00131029  RH  074%=      5-min Rain = 0
KEA1 191505Z 28012KT 01/M03 A3031 RMK A01 T00131029  RH  074%=      5-min Rain = 0
KEA1 191506Z 29011KT 01/M03 A3031 RMK A01 T00141029  RH  073%=      5-min Rain = 0
KEA1 191507Z 28010KT 02/M03 A3031 RMK A01 T00151028  RH  074%=      5-min Rain = 0
KEA1 191508Z 29011KT 02/M03 A3031 RMK A01 T00151028  RH  073%=      5-min Rain = 0
KEA1 191509Z 29011KT 02/M03 A3031 RMK A01 T00161027  RH  073%=      5-min Rain = 0
KEA1 191510Z 29012KT 02/M03 A3031 RMK A01 T00171028  RH  072%=      5-min Rain = 0
KEA1 191511Z 29011KT 02/M03 A3031 RMK A01 T00171028  RH  072%=      5-min Rain = 0
KEA1 191512Z 29010KT 02/M03 A3031 RMK A01 T00181028  RH  071%=      5-min Rain = 0
KEA1 191513Z 29011KT 02/M03 A3031 RMK A01 T00191027  RH  072%=      5-min Rain = 0
KEA1 191514Z 29010KT 02/M03 A3031 RMK A01 T00201026  RH  072%=      5-min Rain = 0
KEA1 191515Z 29011KT 02/M03 A3031 RMK A01 T00211027  RH  071%=      5-min Rain = 0
KEA1 191516Z 29012KT 02/M03 A3031 RMK A01 T00221026  RH  070%=      5-min Rain = 0
KEA1 191517Z 29012KT 02/M03 A3031 RMK A01 T00221028  RH  069%=      5-min Rain = 0
KEA1 191518Z 29011KT 02/M03 A3031 RMK A01 T00231028  RH  069%=      5-min Rain = 0
KEA1 191519Z 29013KT 02/M03 A3031 RMK A01 T00241028  RH  069%=      5-min Rain = 0
KEA1 191520Z 29012KT 02/M03 A3031 RMK A01 T00241028  RH  069%=      5-min Rain = 0
KEA1 191521Z 29012KT 02/M03 A3031 RMK A01 T00241028  RH  068%=      5-min Rain = 0
KEA1 191522Z 29011KT 03/M03 A3031 RMK A01 T00251027  RH  069%=      5-min Rain = 0
KEA1 191523Z 29012KT 03/M03 A3031 RMK A01 T00251026  RH  069%=      5-min Rain = 0
KEA1 191524Z 29012G17KT 03/M03 A3031 RMK A01 T00261027  RH  068%=      5-min Rain = 0
KEA1 191525Z 29012KT 03/M03 A3031 RMK A01 T00261027  RH  068%=      5-min Rain = 0
KEA1 191526Z 29011KT 03/M03 A3031 RMK A01 T00271026  RH  068%=      5-min Rain = 0
KEA1 191527Z 29013KT 03/M03 A3031 RMK A01 T00271027  RH  067%=      5-min Rain = 0
KEA1 191528Z 29011KT 03/M03 A3031 RMK A01 T00271027  RH  068%=      5-min Rain = 0
KEA1 191529Z 29010KT 03/M02 A3031 RMK A01 T00281024  RH  069%=      5-min Rain = 0
KEA1 191530Z 29010KT 03/M02 A3031 RMK A01 T00281023  RH  069%=      5-min Rain = 0
KEA1 191531Z 29011KT 03/M02 A3031 RMK A01 T00281024  RH  068%=      5-min Rain = 0
KEA1 191532Z 29010KT 03/M02 A3031 RMK A01 T00281024  RH  068%=      5-min Rain = 0
KEA1 191533Z 29011KT 03/M02 A3031 RMK A01 T00281024  RH  069%=      5-min Rain = 0
KEA1 191534Z 30012KT 03/M02 A3031 RMK A01 T00281024  RH  069%=      5-min Rain = 0
KEA1 191535Z 30011KT 03/M02 A3031 RMK A01 T00281023  RH  069%=      5-min Rain = 0
KEA1 191536Z 30011KT 03/M02 A3031 RMK A01 T00291024  RH  068%=      5-min Rain = 0
KEA1 191537Z 30011KT 03/M02 A3032 RMK A01 T00291023  RH  068%=      5-min Rain = 0
KEA1 191538Z 30011KT 03/M02 A3032 RMK A01 T00291024  RH  068%=      5-min Rain = 0
KEA1 191539Z 30012KT 03/M02 A3032 RMK A01 T00301024  RH  068%=      5-min Rain = 0
KEA1 191540Z 30011KT 03/M03 A3032 RMK A01 T00301025  RH  067%=      5-min Rain = 0
KEA1 191541Z 30009KT 03/M02 A3032 RMK A01 T00301022  RH  069%=      5-min Rain = 0
KEA1 191542Z 30009KT 03/M02 A3032 RMK A01 T00321019  RH  070%=      5-min Rain = 0
KEA1 191543Z 30010KT 03/M02 A3032 RMK A01 T00331019  RH  069%=      5-min Rain = 0
KEA1 191544Z 30009KT 03/M02 A3032 RMK A01 T00331020  RH  068%=      5-min Rain = 0
KEA1 191545Z 30010KT 03/M02 A3032 RMK A01 T00331020  RH  068%=      5-min Rain = 0
KEA1 191546Z 30011KT 03/M02 A3032 RMK A01 T00341019  RH  068%=      5-min Rain = 0
KEA1 191547Z 30013KT 03/M02 A3032 RMK A01 T00341022  RH  067%=      5-min Rain = 0
KEA1 191548Z 31014G21KT 03/M02 A3032 RMK A01 T00331023  RH  066%=      5-min Rain = 0
KEA1 191549Z 30011KT 03/M03 A3032 RMK A01 T00331025  RH  066%=      5-min Rain = 0
KEA1 191550Z 31010KT 03/M02 A3032 RMK A01 T00331021  RH  067%=      5-min Rain = 0
KEA1 191551Z 31010KT 04/M02 A3032 RMK A01 T00351021  RH  067%=      5-min Rain = 0
KEA1 191552Z 31009KT 04/M02 A3032 RMK A01 T00361018  RH  068%=      5-min Rain = 0
KEA1 191553Z 31012KT 04/M02 A3032 RMK A01 T00371021  RH  066%=      5-min Rain = 0
KEA1 191554Z 31010KT 04/M02 A3032 RMK A01 T00371020  RH  066%=      5-min Rain = 0
KEA1 191555Z 31010KT 04/M02 A3032 RMK A01 T00381018  RH  067%=      5-min Rain = 0
KEA1 191556Z 31011KT 04/M02 A3032 RMK A01 T00381018  RH  067%=      5-min Rain = 0
KEA1 191557Z 31012KT 04/M02 A3032 RMK A01 T00381019  RH  066%=      5-min Rain = 0
KEA1 191558Z 31011KT 04/M02 A3032 RMK A01 T00381022  RH  065%=      5-min Rain = 0
KEA1 191559Z 31010KT 04/M02 A3032 RMK A01 T00381021  RH  066%=      5-min Rain = 0
KEA1 191600Z 31010KT 04/M02 A3032 RMK A01 T00391018  RH  067%=      5-min Rain = 0
KEA1 191601Z 31014KT 04/M02 A3032 RMK A01 T00401017  RH  066%=      5-min Rain = 0
KEA1 191602Z 31013KT 04/M02 A3032 RMK A01 T00401022  RH  064%=      5-min Rain = 0
KEA1 191603Z 31011KT 04/M02 A3032 RMK A01 T00391021  RH  065%=      5-min Rain = 0
KEA1 191604Z 31012KT 04/M02 A3032 RMK A01 T00401020  RH  065%=      5-min Rain = 0
KEA1 191605Z 31012KT 04/M02 A3032 RMK A01 T00411020  RH  064%=      5-min Rain = 0
KEA1 191606Z 31011G16KT 04/M02 A3032 RMK A01 T00421021  RH  063%=      5-min Rain = 0
KEA1 191607Z 31012KT 04/M02 A3032 RMK A01 T00421020  RH  064%=      5-min Rain = 0
KEA1 191608Z 31012KT 04/M02 A3032 RMK A01 T00431021  RH  063%=      5-min Rain = 0
KEA1 191609Z 32010KT 04/M02 A3032 RMK A01 T00421020  RH  064%=      5-min Rain = 0
KEA1 191610Z 31011KT 04/M02 A3032 RMK A01 T00441015  RH  066%=      5-min Rain = 0
KEA1 191611Z 31013KT 05/M02 A3032 RMK A01 T00451017  RH  064%=      5-min Rain = 0
KEA1 191612Z 32014KT 04/M02 A3032 RMK A01 T00441021  RH  062%=      5-min Rain = 0
KEA1 191613Z 33011KT 04/M02 A3032 RMK A01 T00431023  RH  063%=      5-min Rain = 0
KEA1 191614Z 32010KT 04/M02 A3032 RMK A01 T00441018  RH  064%=      5-min Rain = 0
KEA1 191615Z 32014KT 05/M02 A3032 RMK A01 T00451019  RH  063%=      5-min Rain = 0
KEA1 191616Z 32013KT 04/M02 A3032 RMK A01 T00441022  RH  062%=      5-min Rain = 0
KEA1 191617Z 32011KT 04/M02 A3032 RMK A01 T00431021  RH  063%=      5-min Rain = 0
KEA1 191618Z 33011KT 04/M02 A3032 RMK A01 T00441018  RH  064%=      5-min Rain = 0
KEA1 191619Z 33011KT 05/M02 A3032 RMK A01 T00451016  RH  065%=      5-min Rain = 0
KEA1 191620Z 33012KT 05/M02 A3032 RMK A01 T00471017  RH  063%=      5-min Rain = 0
KEA1 191621Z 32011KT 05/M02 A3032 RMK A01 T00461020  RH  063%=      5-min Rain = 0
KEA1 191622Z 34012KT 05/M02 A3032 RMK A01 T00461018  RH  063%=      5-min Rain = 0
KEA1 191623Z 34013KT 05/M02 A3032 RMK A01 T00471017  RH  063%=      5-min Rain = 0
KEA1 191624Z 33012KT 05/M02 A3032 RMK A01 T00471018  RH  063%=      5-min Rain = 0
KEA1 191625Z 33013KT 05/M02 A3032 RMK A01 T00471019  RH  062%=      5-min Rain = 0
KEA1 191626Z 33012KT 05/M02 A3033 RMK A01 T00481019  RH  062%=      5-min Rain = 0
KEA1 191627Z 34013KT 05/M02 A3032 RMK A01 T00481020  RH  061%=      5-min Rain = 0
KEA1 191628Z 35015KT 05/M02 A3032 RMK A01 T00481021  RH  061%=      5-min Rain = 0
KEA1 191629Z 34014KT 05/M02 A3032 RMK A01 T00471021  RH  061%=      5-min Rain = 0
KEA1 191630Z 33016KT 05/M02 A3033 RMK A01 T00471022  RH  061%=      5-min Rain = 0
KEA1 191631Z 33014KT 05/M02 A3033 RMK A01 T00471023  RH  060%=      5-min Rain = 0
KEA1 191632Z 34014KT 05/M02 A3033 RMK A01 T00481021  RH  061%=      5-min Rain = 0
KEA1 191633Z 33014KT 05/M02 A3033 RMK A01 T00481020  RH  061%=      5-min Rain = 0
KEA1 191634Z 33014KT 05/M02 A3033 RMK A01 T00481020  RH  061%=      5-min Rain = 0
KEA1 191635Z 33014KT 05/M02 A3033 RMK A01 T00491019  RH  062%=      5-min Rain = 0
KEA1 191636Z 33015KT 05/M02 A3033 RMK A01 T00491020  RH  061%=      5-min Rain = 0
KEA1 191637Z 33015KT 05/M02 A3033 RMK A01 T00481021  RH  061%=      5-min Rain = 0
KEA1 191638Z 34013KT 05/M02 A3033 RMK A01 T00481020  RH  061%=      5-min Rain = 0
KEA1 191639Z 34012KT 05/M02 A3033 RMK A01 T00491016  RH  063%=      5-min Rain = 0
KEA1 191640Z 33011KT 05/M02 A3032 RMK A01 T00511015  RH  062%=      5-min Rain = 0
KEA1 191641Z 33011KT 05/M02 A3033 RMK A01 T00511017  RH  061%=      5-min Rain = 0
KEA1 191642Z 32012KT 05/M02 A3033 RMK A01 T00531015  RH  062%=      5-min Rain = 0
KEA1 191643Z 33014KT 05/M02 A3033 RMK A01 T00531018  RH  060%=      5-min Rain = 0
KEA1 191644Z 33012KT 05/M02 A3033 RMK A01 T00531018  RH  060%=      5-min Rain = 0
KEA1 191645Z 33014KT 05/M02 A3033 RMK A01 T00531019  RH  060%=      5-min Rain = 0
KEA1 191646Z 34011KT 05/M02 A3033 RMK A01 T00511022  RH  059%=      5-min Rain = 0
KEA1 191647Z 33011KT 05/M02 A3033 RMK A01 T00521016  RH  062%=      5-min Rain = 0
KEA1 191648Z 33012KT 05/M02 A3033 RMK A01 T00541015  RH  061%=      5-min Rain = 0
KEA1 191649Z 33013KT 06/M02 A3033 RMK A01 T00551017  RH  060%=      5-min Rain = 0
KEA1 191650Z 32013KT 05/M02 A3033 RMK A01 T00541018  RH  060%=      5-min Rain = 0
KEA1 191651Z 35014KT 05/M02 A3033 RMK A01 T00531016  RH  061%=      5-min Rain = 0
KEA1 191652Z 34015KT 05/M02 A3033 RMK A01 T00541018  RH  060%=      5-min Rain = 0
KEA1 191653Z 34016KT 05/M02 A3033 RMK A01 T00541019  RH  060%=      5-min Rain = 0
KEA1 191654Z 35013KT 05/M02 A3033 RMK A01 T00531018  RH  060%=      5-min Rain = 0
KEA1 191655Z 33012KT 05/M02 A3033 RMK A01 T00541016  RH  061%=      5-min Rain = 0
KEA1 191656Z 33014KT 06/M02 A3033 RMK A01 T00551017  RH  060%=      5-min Rain = 0
KEA1 191657Z 33013KT 05/M02 A3033 RMK A01 T00541017  RH  060%=      5-min Rain = 0
KEA1 191658Z 33013KT 06/M02 A3033 RMK A01 T00551019  RH  059%=      5-min Rain = 0
KEA1 191659Z 33012KT 06/M02 A3033 RMK A01 T00551018  RH  059%=      5-min Rain = 0
KEA1 191700Z 34014KT 06/M02 A3034 RMK A01 T00561016  RH  060%=      5-min Rain = 0
KEA1 191701Z 34014KT 06/M02 A3033 RMK A01 T00581016  RH  059%=      5-min Rain = 0
KEA1 191702Z 34012KT 06/M02 A3033 RMK A01 T00581015  RH  059%=      5-min Rain = 0
KEA1 191703Z 34010KT 06/M01 A3034 RMK A01 T00591012  RH  060%=      5-min Rain = 0
KEA1 191704Z 34013KT 06/M01 A3033 RMK A01 T00611014  RH  059%=      5-min Rain = 0
KEA1 191705Z 33013KT 06/M02 A3033 RMK A01 T00601017  RH  058%=      5-min Rain = 0
KEA1 191706Z 34015KT 06/M02 A3033 RMK A01 T00591018  RH  058%=      5-min Rain = 0
KEA1 191707Z 33013KT 06/M02 A3034 RMK A01 T00581020  RH  057%=      5-min Rain = 0
KEA1 191708Z 34013G18KT 06/M02 A3034 RMK A01 T00581019  RH  058%=      5-min Rain = 0
KEA1 191709Z 34015KT 06/M02 A3034 RMK A01 T00581019  RH  057%=      5-min Rain = 0
KEA1 191710Z 34013KT 06/M02 A3034 RMK A01 T00571018  RH  058%=      5-min Rain = 0
KEA1 191711Z 35015KT 06/M02 A3034 RMK A01 T00581018  RH  058%=      5-min Rain = 0
KEA1 191712Z 35013KT 06/M02 A3034 RMK A01 T00581020  RH  057%=      5-min Rain = 0
KEA1 191713Z 35012KT 06/M02 A3034 RMK A01 T00581017  RH  058%=      5-min Rain = 0
KEA1 191714Z 34012KT 06/M02 A3034 RMK A01 T00601016  RH  059%=      5-min Rain = 0
KEA1 191715Z 33015KT 06/M02 A3034 RMK A01 T00611016  RH  058%=      5-min Rain = 0
KEA1 191716Z 33015KT 06/M02 A3034 RMK A01 T00591021  RH  057%=      5-min Rain = 0
KEA1 191717Z 34014KT 06/M02 A3034 RMK A01 T00591018  RH  058%=      5-min Rain = 0
KEA1 191718Z 33016KT 06/M02 A3034 RMK A01 T00591019  RH  057%=      5-min Rain = 0
KEA1 191719Z 34015KT 06/M02 A3034 RMK A01 T00581021  RH  057%=      5-min Rain = 0
KEA1 191720Z 35013KT 06/M02 A3034 RMK A01 T00581018  RH  058%=      5-min Rain = 0
KEA1 191721Z 34014KT 06/M02 A3034 RMK A01 T00611015  RH  058%=      5-min Rain = 0
KEA1 191722Z 35016KT 06/M02 A3034 RMK A01 T00611020  RH  056%=      5-min Rain = 0
KEA1 191723Z 35014KT 06/M02 A3034 RMK A01 T00601022  RH  056%=      5-min Rain = 0
KEA1 191724Z 35014KT 06/M02 A3034 RMK A01 T00591020  RH  057%=      5-min Rain = 0
KEA1 191725Z 34015KT 06/M02 A3034 RMK A01 T00601018  RH  057%=      5-min Rain = 0
KEA1 191726Z 35015KT 06/M02 A3034 RMK A01 T00621017  RH  057%=      5-min Rain = 0
KEA1 191727Z 34015G20KT 06/M02 A3034 RMK A01 T00631021  RH  055%=      5-min Rain = 0
KEA1 191728Z 35017KT 06/M02 A3034 RMK A01 T00611022  RH  055%=      5-min Rain = 0
KEA1 191729Z 35016KT 06/M02 A3034 RMK A01 T00601021  RH  056%=      5-min Rain = 0
KEA1 191730Z 35015KT 06/M02 A3034 RMK A01 T00611019  RH  056%=      5-min Rain = 0
KEA1 191731Z 35015KT 06/M02 A3034 RMK A01 T00611019  RH  056%=      5-min Rain = 0
KEA1 191732Z 35011G16KT 06/M02 A3034 RMK A01 T00621017  RH  057%=      5-min Rain = 0
KEA1 191733Z 35016KT 07/M01 A3033 RMK A01 T00661013  RH  057%=      5-min Rain = 0
KEA1 191734Z 35013KT 07/M02 A3033 RMK A01 T00661018  RH  055%=      5-min Rain = 0
KEA1 191735Z 35011KT 07/M02 A3033 RMK A01 T00651015  RH  056%=      5-min Rain = 0
KEA1 191736Z 34014KT 07/M02 A3033 RMK A01 T00671016  RH  056%=      5-min Rain = 0
KEA1 191737Z 34014KT 07/M02 A3034 RMK A01 T00661017  RH  055%=      5-min Rain = 0
KEA1 191738Z 34016KT 07/M02 A3033 RMK A01 T00671019  RH  054%=      5-min Rain = 0
KEA1 191739Z 34015KT 07/M02 A3033 RMK A01 T00661019  RH  054%=      5-min Rain = 0
KEA1 191740Z 34014KT 07/M02 A3033 RMK A01 T00651019  RH  055%=      5-min Rain = 0
KEA1 191741Z 34015KT 07/M02 A3033 RMK A01 T00651018  RH  055%=      5-min Rain = 0
KEA1 191742Z 34015KT 07/M02 A3034 RMK A01 T00651021  RH  054%=      5-min Rain = 0
KEA1 191743Z 35013KT 06/M02 A3033 RMK A01 T00641020  RH  055%=      5-min Rain = 0
KEA1 191744Z 35013KT 07/M02 A3034 RMK A01 T00651017  RH  056%=      5-min Rain = 0
KEA1 191745Z 35014KT 07/M02 A3033 RMK A01 T00651017  RH  056%=      5-min Rain = 0
KEA1 191746Z 34013KT 07/M01 A3033 RMK A01 T00671014  RH  056%=      5-min Rain = 0
KEA1 191747Z 35013KT 07/M01 A3034 RMK A01 T00701012  RH  056%=      5-min Rain = 0
KEA1 191748Z 35013KT 07/M02 A3034 RMK A01 T00721015  RH  054%=      5-min Rain = 0
KEA1 191749Z 34015KT 07/M02 A3034 RMK A01 T00721015  RH  054%=      5-min Rain = 0
KEA1 191750Z 34016KT 07/M02 A3034 RMK A01 T00711017  RH  054%=      5-min Rain = 0
KEA1 191751Z 34014KT 07/M02 A3034 RMK A01 T00681019  RH  054%=      5-min Rain = 0
KEA1 191752Z 34015KT 07/M02 A3033 RMK A01 T00671018  RH  055%=      5-min Rain = 0
KEA1 191753Z 35014G19KT 07/M02 A3033 RMK A01 T00671017  RH  055%=      5-min Rain = 0
KEA1 191754Z 35017KT 07/M02 A3034 RMK A01 T00671017  RH  055%=      5-min Rain = 0
KEA1 191755Z 35017KT 07/M02 A3033 RMK A01 T00681018  RH  054%=      5-min Rain = 0
KEA1 191756Z 34014KT 07/M02 A3034 RMK A01 T00671018  RH  055%=      5-min Rain = 0
KEA1 191757Z 35013G18KT 07/M02 A3033 RMK A01 T00681015  RH  056%=      5-min Rain = 0
KEA1 191758Z 35013KT 07/M02 A3033 RMK A01 T00711015  RH  054%=      5-min Rain = 0
KEA1 191759Z 00015KT 07/M01 A3033 RMK A01 T00731014  RH  054%=      5-min Rain = 0
KEA1 191800Z 36015KT 07/M01 A3033 RMK A01 T00731014  RH  054%=      5-min Rain = 0
KEA1 191801Z 34015KT 07/M02 A3034 RMK A01 T00731015  RH  054%=      5-min Rain = 0
KEA1 191802Z 34013KT 07/M02 A3034 RMK A01 T00711017  RH  054%=      5-min Rain = 0
KEA1 191803Z 34017KT 07/M01 A3033 RMK A01 T00721013  RH  054%=      5-min Rain = 0
KEA1 191804Z 36015KT 07/M02 A3033 RMK A01 T00731015  RH  054%=      5-min Rain = 0
KEA1 191805Z 00016KT 07/M02 A3033 RMK A01 T00731017  RH  053%=      5-min Rain = 0
KEA1 191806Z 00017KT 07/M02 A3033 RMK A01 T00731017  RH  053%=      5-min Rain = 0
KEA1 191807Z 00017KT 07/M02 A3033 RMK A01 T00721016  RH  054%=      5-min Rain = 0
KEA1 191808Z 35016KT 07/M02 A3033 RMK A01 T00721015  RH  054%=      5-min Rain = 0
KEA1 191809Z 35016KT 07/M02 A3033 RMK A01 T00711018  RH  053%=      5-min Rain = 0
KEA1 191810Z 34014G21KT 07/M01 A3033 RMK A01 T00731014  RH  054%=      5-min Rain = 0
KEA1 191811Z 35018KT 08/M02 A3033 RMK A01 T00761016  RH  052%=      5-min Rain = 0
KEA1 191812Z 35016KT 07/M02 A3033 RMK A01 T00741019  RH  051%=      5-min Rain = 0
KEA1 191813Z 35015KT 07/M02 A3033 RMK A01 T00731018  RH  052%=      5-min Rain = 0
KEA1 191814Z 35016KT 08/M02 A3033 RMK A01 T00751016  RH  053%=      5-min Rain = 0
KEA1 191815Z 35017KT 08/M02 A3033 RMK A01 T00751018  RH  052%=      5-min Rain = 0
KEA1 191816Z 36016KT 07/M02 A3033 RMK A01 T00731020  RH  052%=      5-min Rain = 0
KEA1 191817Z 35017KT 07/M02 A3032 RMK A01 T00731019  RH  052%=      5-min Rain = 0
KEA1 191818Z 36015KT 07/M02 A3032 RMK A01 T00731019  RH  052%=      5-min Rain = 0
KEA1 191819Z 36013G20KT 07/M02 A3032 RMK A01 T00741018  RH  052%=      5-min Rain = 0
KEA1 191820Z 35016KT 07/M02 A3032 RMK A01 T00741019  RH  052%=      5-min Rain = 0
KEA1 191821Z 35015KT 07/M02 A3032 RMK A01 T00741018  RH  052%=      5-min Rain = 0
KEA1 191822Z 34017KT 07/M02 A3032 RMK A01 T00741018  RH  052%=      5-min Rain = 0
KEA1 191823Z 34015KT 07/M02 A3032 RMK A01 T00741019  RH  052%=      5-min Rain = 0
KEA1 191824Z 34014KT 07/M02 A3032 RMK A01 T00741015  RH  053%=      5-min Rain = 0
KEA1 191825Z 35017KT 08/M02 A3032 RMK A01 T00751015  RH  053%=      5-min Rain = 0
KEA1 191826Z 36017KT 08/M02 A3032 RMK A01 T00751017  RH  052%=      5-min Rain = 0
KEA1 191827Z 36017KT 08/M02 A3032 RMK A01 T00751016  RH  052%=      5-min Rain = 0
KEA1 191828Z 35016KT 08/M02 A3032 RMK A01 T00751016  RH  052%=      5-min Rain = 0
KEA1 191829Z 36015KT 08/M02 A3032 RMK A01 T00761017  RH  052%=      5-min Rain = 0
KEA1 191830Z 36014KT 08/M02 A3032 RMK A01 T00751017  RH  052%=      5-min Rain = 0
KEA1 191831Z 36014KT 08/M02 A3032 RMK A01 T00771015  RH  052%=      5-min Rain = 0
KEA1 191832Z 33014G19KT 08/M01 A3032 RMK A01 T00801012  RH  052%=      5-min Rain = 0
KEA1 191833Z 34015KT 08/M01 A3032 RMK A01 T00811013  RH  052%=      5-min Rain = 0
KEA1 191834Z 35015KT 08/M01 A3032 RMK A01 T00791014  RH  052%=      5-min Rain = 0
KEA1 191835Z 34013KT 08/M02 A3032 RMK A01 T00781017  RH  051%=      5-min Rain = 0
KEA1 191836Z 35015G21KT 08/M02 A3032 RMK A01 T00751017  RH  052%=      5-min Rain = 0
KEA1 191837Z 00017KT 08/M02 A3031 RMK A01 T00751017  RH  052%=      5-min Rain = 0
KEA1 191838Z 35017KT 08/M02 A3032 RMK A01 T00771017  RH  051%=      5-min Rain = 0
KEA1 191839Z 35015KT 08/M02 A3032 RMK A01 T00761018  RH  051%=      5-min Rain = 0
KEA1 191840Z 35013KT 08/M02 A3032 RMK A01 T00771016  RH  052%=      5-min Rain = 0
KEA1 191841Z 35015KT 08/M02 A3032 RMK A01 T00781015  RH  052%=      5-min Rain = 0
KEA1 191842Z 35016KT 08/M02 A3032 RMK A01 T00791018  RH  051%=      5-min Rain = 0
KEA1 191843Z 35014KT 08/M02 A3032 RMK A01 T00781018  RH  051%=      5-min Rain = 0
KEA1 191844Z 35014KT 08/M02 A3031 RMK A01 T00771017  RH  051%=      5-min Rain = 0
KEA1 191845Z 35013KT 08/M02 A3031 RMK A01 T00771016  RH  052%=      5-min Rain = 0
KEA1 191846Z 34013KT 08/M01 A3032 RMK A01 T00781014  RH  052%=      5-min Rain = 0
KEA1 191847Z 33012KT 08/M02 A3032 RMK A01 T00811016  RH  051%=      5-min Rain = 0
KEA1 191848Z 34012KT 08/M02 A3032 RMK A01 T00821015  RH  050%=      5-min Rain = 0
KEA1 191849Z 34013KT 08/M01 A3032 RMK A01 T00831012  RH  051%=      5-min Rain = 0
KEA1 191850Z 35012KT 08/M01 A3031 RMK A01 T00841014  RH  050%=      5-min Rain = 0
KEA1 191851Z 35013G18KT 08/M02 A3031 RMK A01 T00841017  RH  049%=      5-min Rain = 0
KEA1 191852Z 34010KT 08/M02 A3031 RMK A01 T00811017  RH  050%=      5-min Rain = 0
KEA1 191853Z 34014KT 08/M01 A3031 RMK A01 T00831014  RH  050%=      5-min Rain = 0
KEA1 191854Z 34016KT 08/M02 A3031 RMK A01 T00821019  RH  049%=      5-min Rain = 0
KEA1 191855Z 35013KT 08/M02 A3031 RMK A01 T00831015  RH  050%=      5-min Rain = 0
KEA1 191856Z 36013KT 09/M01 A3031 RMK A01 T00851014  RH  050%=      5-min Rain = 0
KEA1 191857Z 35010KT 08/M01 A3031 RMK A01 T00841014  RH  050%=      5-min Rain = 0
KEA1 191858Z 34013KT 09/M02 A3031 RMK A01 T00851016  RH  049%=      5-min Rain = 0
KEA1 191859Z 33013KT 09/M02 A3031 RMK A01 T00851018  RH  048%=      5-min Rain = 0
KEA1 191900Z 33013KT 09/M02 A3031 RMK A01 T00851019  RH  048%=      5-min Rain = 0
KEA1 191901Z 33010KT 08/M02 A3031 RMK A01 T00831019  RH  049%=      5-min Rain = 0
KEA1 191902Z 33012KT 08/M02 A3031 RMK A01 T00831016  RH  050%=      5-min Rain = 0
KEA1 191903Z 35012KT 08/M01 A3031 RMK A01 T00841013  RH  050%=      5-min Rain = 0
KEA1 191904Z 34016KT 08/M02 A3031 RMK A01 T00841018  RH  049%=      5-min Rain = 0
KEA1 191905Z 34013KT 08/M02 A3031 RMK A01 T00811019  RH  050%=      5-min Rain = 0
KEA1 191906Z 36010KT 08/M02 A3031 RMK A01 T00801017  RH  051%=      5-min Rain = 0
KEA1 191907Z 00011KT 08/M01 A3031 RMK A01 T00821014  RH  051%=      5-min Rain = 0
KEA1 191908Z 01015KT 09/M01 A303 RMK A01 T00851013  RH  050%=      5-min Rain = 0
KEA1 191909Z 34013KT 09/M01 A303 RMK A01 T00871013  RH  049%=      5-min Rain = 0
KEA1 191910Z 34013KT 09/M02 A3031 RMK A01 T00891017  RH  048%=      5-min Rain = 0
KEA1 191911Z 34011KT 09/M02 A303 RMK A01 T00851021  RH  047%=      5-min Rain = 0
KEA1 191912Z 33010KT 08/M02 A3031 RMK A01 T00841018  RH  049%=      5-min Rain = 0
KEA1 191913Z 34012KT 09/M02 A303 RMK A01 T00851015  RH  049%=      5-min Rain = 0
KEA1 191914Z 33012KT 09/M02 A3031 RMK A01 T00871016  RH  048%=      5-min Rain = 0
KEA1 191915Z 34014KT 09/M02 A3031 RMK A01 T00861017  RH  048%=      5-min Rain = 0
KEA1 191916Z 34013KT 09/M02 A3031 RMK A01 T00861018  RH  048%=      5-min Rain = 0
KEA1 191917Z 35010KT 09/M02 A3031 RMK A01 T00851018  RH  048%=      5-min Rain = 0
KEA1 191918Z 33010KT 09/M02 A3031 RMK A01 T00851017  RH  049%=      5-min Rain = 0
KEA1 191919Z 35009KT 08/M02 A3031 RMK A01 T00841016  RH  049%=      5-min Rain = 0
KEA1 191920Z 35013KT 09/M01 A3031 RMK A01 T00851014  RH  050%=      5-min Rain = 0
KEA1 191921Z 36011KT 08/M02 A3031 RMK A01 T00841015  RH  050%=      5-min Rain = 0
KEA1 191922Z 35011KT 09/M01 A3031 RMK A01 T00851014  RH  050%=      5-min Rain = 0
KEA1 191923Z 33012KT 09/M01 A3031 RMK A01 T00891014  RH  049%=      5-min Rain = 0
KEA1 191924Z 32009KT 09/M02 A3031 RMK A01 T00881024  RH  045%=      5-min Rain = 0
KEA1 191925Z 35008KT 09/M02 A3031 RMK A01 T00861022  RH  047%=      5-min Rain = 0
KEA1 191926Z 33009KT 09/M02 A3031 RMK A01 T00861020  RH  047%=      5-min Rain = 0
KEA1 191927Z 35012G17KT 09/M02 A3031 RMK A01 T00891016  RH  048%=      5-min Rain = 0
KEA1 191928Z 35013KT 09/M02 A303 RMK A01 T00891017  RH  047%=      5-min Rain = 0
KEA1 191929Z 35011KT 09/M02 A303 RMK A01 T00881017  RH  048%=      5-min Rain = 0
KEA1 191930Z 35009KT 09/M02 A3031 RMK A01 T00881015  RH  048%=      5-min Rain = 0
KEA1 191931Z 33013KT 09/M02 A3031 RMK A01 T00881016  RH  048%=      5-min Rain = 0
KEA1 191932Z 33011KT 09/M02 A3031 RMK A01 T00871017  RH  048%=      5-min Rain = 0
KEA1 191933Z 35011KT 09/M02 A3031 RMK A01 T00891017  RH  047%=      5-min Rain = 0
KEA1 191934Z 34010KT 09/M02 A3031 RMK A01 T00881018  RH  047%=      5-min Rain = 0
KEA1 191935Z 32012KT 09/M02 A3031 RMK A01 T00871017  RH  048%=      5-min Rain = 0
KEA1 191936Z 32010KT 09/M02 A3031 RMK A01 T00871018  RH  048%=      5-min Rain = 0
KEA1 191937Z 33010KT 09/M02 A3031 RMK A01 T00851020  RH  048%=      5-min Rain = 0
KEA1 191938Z 34010KT 08/M02 A303 RMK A01 T00841018  RH  049%=      5-min Rain = 0
KEA1 191939Z 31011KT 09/M01 A3031 RMK A01 T00871012  RH  050%=      5-min Rain = 0
KEA1 191940Z 33013KT 09/M02 A303 RMK A01 T00881015  RH  048%=      5-min Rain = 0
KEA1 191941Z 35014KT 09/M02 A303 RMK A01 T00881016  RH  048%=      5-min Rain = 0
KEA1 191942Z 35014KT 09/M02 A303 RMK A01 T00881017  RH  048%=      5-min Rain = 0
KEA1 191943Z 33012KT 09/M02 A303 RMK A01 T00881018  RH  048%=      5-min Rain = 0
KEA1 191944Z 32010KT 09/M02 A303 RMK A01 T00891015  RH  048%=      5-min Rain = 0
KEA1 191945Z 31010KT 09/M01 A303 RMK A01 T00921013  RH  048%=      5-min Rain = 0
KEA1 191946Z 32011KT 09/M01 A303 RMK A01 T00911014  RH  048%=      5-min Rain = 0
KEA1 191947Z 33011KT 09/M01 A303 RMK A01 T00911012  RH  048%=      5-min Rain = 0
KEA1 191948Z 30011KT 09/M01 A303 RMK A01 T00931011  RH  048%=      5-min Rain = 0
KEA1 191949Z 31010KT 09/M02 A303 RMK A01 T00931015  RH  047%=      5-min Rain = 0
KEA1 191950Z 33008KT 09/M01 A303 RMK A01 T00921013  RH  048%=      5-min Rain = 0
KEA1 191951Z 33008KT 09/M01 A303 RMK A01 T00941014  RH  047%=      5-min Rain = 0
KEA1 191952Z 32010G15KT 09/M02 A303 RMK A01 T00921015  RH  047%=      5-min Rain = 0
KEA1 191953Z 33013KT 09/M02 A303 RMK A01 T00901015  RH  048%=      5-min Rain = 0
KEA1 191954Z 32012KT 09/M01 A303 RMK A01 T00911014  RH  048%=      5-min Rain = 0
KEA1 191955Z 32012KT 09/M02 A303 RMK A01 T00911015  RH  047%=      5-min Rain = 0
KEA1 191956Z 32009KT 09/M02 A303 RMK A01 T00881017  RH  048%=      5-min Rain = 0
KEA1 191957Z 34009KT 09/M01 A3029 RMK A01 T00891013  RH  049%=      5-min Rain = 0
KEA1 191958Z 34008KT 09/M02 A3029 RMK A01 T00911015  RH  047%=      5-min Rain = 0
KEA1 191959Z 34006KT 09/M02 A3029 RMK A01 T00901015  RH  048%=      5-min Rain = 0
KEA1 192000Z 34009KT 09/M01 A3029 RMK A01 T00921013  RH  048%=      5-min Rain = 0
KEA1 192001Z 36011KT 09/M01 A3029 RMK A01 T00931014  RH  047%=      5-min Rain = 0
KEA1 192002Z 35014KT 09/M01 A3028 RMK A01 T00921014  RH  047%=      5-min Rain = 0
KEA1 192003Z 32012KT 09/M01 A3029 RMK A01 T00921014  RH  048%=      5-min Rain = 0
KEA1 192004Z 33008KT 09/M02 A3029 RMK A01 T00921016  RH  047%=      5-min Rain = 0
KEA1 192005Z 34007KT 09/M02 A3029 RMK A01 T00881017  RH  048%=      5-min Rain = 0
KEA1 192006Z 33008KT 09/M01 A3029 RMK A01 T00921011  RH  049%=      5-min Rain = 0
KEA1 192007Z 34011KT 10/M01 A3028 RMK A01 T00951012  RH  047%=      5-min Rain = 0
KEA1 192008Z 32011KT 09/M02 A3029 RMK A01 T00931015  RH  047%=      5-min Rain = 0
KEA1 192009Z 34008KT 09/M02 A3029 RMK A01 T00891017  RH  047%=      5-min Rain = 0
KEA1 192010Z 33007KT 09/M01 A3029 RMK A01 T00901013  RH  049%=      5-min Rain = 0
KEA1 192011Z 32006KT 09/M01 A3029 RMK A01 T00941008  RH  049%=      5-min Rain = 0
KEA1 192012Z 31009KT 10/M01 A3028 RMK A01 T00981009  RH  047%=      5-min Rain = 0
KEA1 192013Z 32011KT 10/M01 A3029 RMK A01 T00961013  RH  046%=      5-min Rain = 0
KEA1 192014Z 33011KT 09/M02 A3028 RMK A01 T00931015  RH  047%=      5-min Rain = 0
KEA1 192015Z 34009KT 09/M02 A3028 RMK A01 T00891015  RH  048%=      5-min Rain = 0
KEA1 192016Z 35010KT 09/M01 A3028 RMK A01 T00901013  RH  048%=      5-min Rain = 0
KEA1 192017Z 34006KT 09/M02 A3028 RMK A01 T00901016  RH  047%=      5-min Rain = 0
KEA1 192018Z 34005G12KT 09/M02 A3028 RMK A01 T00881015  RH  048%=      5-min Rain = 0
KEA1 192019Z 32010KT 09/M01 A3028 RMK A01 T00931009  RH  049%=      5-min Rain = 0
KEA1 192020Z 32010KT 10/M01 A3028 RMK A01 T00971010  RH  047%=      5-min Rain = 0
KEA1 192021Z 33006KT 10/M01 A3028 RMK A01 T00951013  RH  047%=      5-min Rain = 0
KEA1 192022Z 33008KT 09/M01 A3028 RMK A01 T00941012  RH  047%=      5-min Rain = 0
KEA1 192023Z 33010KT 10/M01 A3028 RMK A01 T00951013  RH  047%=      5-min Rain = 0
KEA1 192024Z 31011KT 10/M01 A3028 RMK A01 T00961010  RH  047%=      5-min Rain = 0
KEA1 192025Z 30011KT 10/M01 A3028 RMK A01 T00971012  RH  047%=      5-min Rain = 0
KEA1 192026Z 29008KT 10/M02 A3028 RMK A01 T00951016  RH  046%=      5-min Rain = 0
KEA1 192027Z 30006KT 09/M02 A3028 RMK A01 T00931015  RH  047%=      5-min Rain = 0
KEA1 192028Z 30006KT 10/M01 A3028 RMK A01 T00951011  RH  047%=      5-min Rain = 0
KEA1 192029Z 33006KT 09/M01 A3028 RMK A01 T00941013  RH  047%=      5-min Rain = 0
KEA1 192030Z 33009KT 10/M01 A3028 RMK A01 T00971008  RH  048%=      5-min Rain = 0
KEA1 192031Z 34009KT 10/M01 A3028 RMK A01 T00971012  RH  047%=      5-min Rain = 0
KEA1 192032Z 34006KT 09/M01 A3028 RMK A01 T00931014  RH  047%=      5-min Rain = 0
KEA1 192033Z 33009KT 09/M01 A3027 RMK A01 T00941012  RH  047%=      5-min Rain = 0
KEA1 192034Z 31011KT 09/M02 A3028 RMK A01 T00941015  RH  046%=      5-min Rain = 0
KEA1 192035Z 30010KT 09/M02 A3027 RMK A01 T00941016  RH  046%=      5-min Rain = 0
KEA1 192036Z 29009KT 09/M02 A3027 RMK A01 T00941016  RH  046%=      5-min Rain = 0
KEA1 192037Z 29008KT 10/M01 A3027 RMK A01 T00951014  RH  047%=      5-min Rain = 0
KEA1 192038Z 31007KT 10/M01 A3027 RMK A01 T00981011  RH  047%=      5-min Rain = 0
KEA1 192039Z 33006KT 10/M01 A3027 RMK A01 T00991010  RH  047%=      5-min Rain = 0
KEA1 192040Z 34009G14KT 10/M01 A3027 RMK A01 T00981011  RH  047%=      5-min Rain = 0
KEA1 192041Z 30009KT 10/M01 A3027 RMK A01 T00971011  RH  047%=      5-min Rain = 0
KEA1 192042Z 31007KT 10/M01 A3027 RMK A01 T00981010  RH  047%=      5-min Rain = 0
KEA1 192043Z 33008KT 10/M01 A3027 RMK A01 T01001011  RH  046%=      5-min Rain = 0
KEA1 192044Z 34008KT 10/M01 A3027 RMK A01 T01001013  RH  045%=      5-min Rain = 0
KEA1 192045Z 32007G13KT 10/M01 A3027 RMK A01 T00991013  RH  045%=      5-min Rain = 0
KEA1 192046Z 32010KT 10/M01 A3027 RMK A01 T00991014  RH  045%=      5-min Rain = 0
KEA1 192047Z 30010KT 10/M02 A3027 RMK A01 T00981016  RH  045%=      5-min Rain = 0
KEA1 192048Z 32008KT 10/M02 A3027 RMK A01 T00991017  RH  044%=      5-min Rain = 0
KEA1 192049Z 30008KT 10/M02 A3027 RMK A01 T00971015  RH  046%=      5-min Rain = 0
KEA1 192050Z 31009KT 10/M01 A3027 RMK A01 T00991013  RH  046%=      5-min Rain = 0
KEA1 192051Z 31009KT 10/M02 A3027 RMK A01 T00981015  RH  045%=      5-min Rain = 0
KEA1 192052Z 34008KT 10/M01 A3027 RMK A01 T00981012  RH  046%=      5-min Rain = 0
KEA1 192053Z 34007KT 10/M01 A3027 RMK A01 T00991009  RH  047%=      5-min Rain = 0
KEA1 192054Z 31009KT 10/M01 A3027 RMK A01 T01021009  RH  046%=      5-min Rain = 0
KEA1 192055Z 33010KT 10/M01 A3027 RMK A01 T01021012  RH  045%=      5-min Rain = 0
KEA1 192056Z 32010KT 10/M01 A3027 RMK A01 T01001014  RH  045%=      5-min Rain = 0
KEA1 192057Z 33008KT 10/M01 A3027 RMK A01 T00981014  RH  045%=      5-min Rain = 0
KEA1 192058Z 33005KT 10/M01 A3027 RMK A01 T00971014  RH  046%=      5-min Rain = 0
KEA1 192059Z 35007KT 10/M01 A3027 RMK A01 T00971014  RH  046%=      5-min Rain = 0
KEA1 192100Z 35010KT 10/M01 A3027 RMK A01 T00991013  RH  046%=      5-min Rain = 0
KEA1 192101Z 35007KT 10/M01 A3027 RMK A01 T00991013  RH  046%=      5-min Rain = 0
KEA1 192102Z 36007KT 10/M01 A3027 RMK A01 T01011011  RH  045%=      5-min Rain = 0
KEA1 192103Z 33007KT 10/M01 A3027 RMK A01 T01011012  RH  045%=      5-min Rain = 0
KEA1 192104Z 32010KT 10/M01 A3027 RMK A01 T01021012  RH  045%=      5-min Rain = 0
KEA1 192105Z 33010KT 10/M01 A3027 RMK A01 T01031013  RH  044%=      5-min Rain = 0
KEA1 192106Z 32009KT 10/M01 A3027 RMK A01 T01041011  RH  045%=      5-min Rain = 0
KEA1 192107Z 32009KT 10/M01 A3027 RMK A01 T01031013  RH  044%=      5-min Rain = 0
KEA1 192108Z 31010KT 10/M01 A3027 RMK A01 T01001014  RH  045%=      5-min Rain = 0
KEA1 192109Z 31008KT 10/M02 A3027 RMK A01 T00981015  RH  045%=      5-min Rain = 0
KEA1 192110Z 29006KT 10/M01 A3027 RMK A01 T00961014  RH  046%=      5-min Rain = 0
KEA1 192111Z 32008KT 10/M01 A3027 RMK A01 T00961013  RH  047%=      5-min Rain = 0
KEA1 192112Z 32004KT 10/M01 A3027 RMK A01 T00971012  RH  047%=      5-min Rain = 0
KEA1 192113Z 31005KT 10/M01 A3027 RMK A01 T00981013  RH  046%=      5-min Rain = 0
KEA1 192114Z 30005KT 10/M01 A3027 RMK A01 T00981014  RH  046%=      5-min Rain = 0
KEA1 192115Z 31003KT 10/M01 A3027 RMK A01 T00991014  RH  045%=      5-min Rain = 0
KEA1 192116Z 32004KT 10/M02 A3027 RMK A01 T00971016  RH  045%=      5-min Rain = 0
KEA1 192117Z 29003KT 10/M02 A3027 RMK A01 T00961015  RH  046%=      5-min Rain = 0
KEA1 192118Z 30004KT 10/M02 A3027 RMK A01 T00961015  RH  046%=      5-min Rain = 0
KEA1 192119Z 32002KT 10/M02 A3027 RMK A01 T00981015  RH  045%=      5-min Rain = 0
KEA1 192120Z 26003KT 10/M02 A3027 RMK A01 T00991015  RH  045%=      5-min Rain = 0
KEA1 192121Z 28006KT 10/M01 A3027 RMK A01 T01021012  RH  045%=      5-min Rain = 0
KEA1 192122Z 28007KT 10/M01 A3027 RMK A01 T01041013  RH  044%=      5-min Rain = 0
KEA1 192123Z 27006KT 10/M02 A3027 RMK A01 T01031015  RH  044%=      5-min Rain = 0
KEA1 192124Z 28006KT 10/M02 A3027 RMK A01 T01021015  RH  044%=      5-min Rain = 0
KEA1 192125Z 30007KT 11/M01 A3027 RMK A01 T01051012  RH  044%=      5-min Rain = 0
KEA1 192126Z 30005KT 11/M02 A3027 RMK A01 T01051017  RH  042%=      5-min Rain = 0
KEA1 192127Z 31005KT 10/M02 A3026 RMK A01 T01021019  RH  043%=      5-min Rain = 0
KEA1 192128Z 34007KT 10/M02 A3026 RMK A01 T01011016  RH  044%=      5-min Rain = 0
KEA1 192129Z 34006KT 10/M02 A3026 RMK A01 T01021018  RH  043%=      5-min Rain = 0
KEA1 192130Z 33004KT 10/M02 A3027 RMK A01 T01021020  RH  042%=      5-min Rain = 0
KEA1 192131Z 33002KT 10/M02 A3027 RMK A01 T01031015  RH  043%=      5-min Rain = 0
KEA1 192132Z 06001KT 11/M02 A3026 RMK A01 T01081016  RH  042%=      5-min Rain = 0
KEA1 192133Z 20002KT 11/M02 A3026 RMK A01 T01061021  RH  041%=      5-min Rain = 0
KEA1 192134Z 25003KT 10/M02 A3026 RMK A01 T01031021  RH  042%=      5-min Rain = 0
KEA1 192135Z 24003KT 10/M02 A3026 RMK A01 T01041019  RH  042%=      5-min Rain = 0
KEA1 192136Z 27003KT 10/M02 A3026 RMK A01 T01031019  RH  042%=      5-min Rain = 0
KEA1 192137Z 28004KT 10/M02 A3026 RMK A01 T01041016  RH  043%=      5-min Rain = 0
KEA1 192138Z 34006KT 11/M02 A3026 RMK A01 T01061016  RH  043%=      5-min Rain = 0
KEA1 192139Z 35006KT 11/M02 A3026 RMK A01 T01061020  RH  041%=      5-min Rain = 0
KEA1 192140Z 32008KT 11/M02 A3026 RMK A01 T01061022  RH  041%=      5-min Rain = 0
KEA1 192141Z 30007KT 11/M02 A3026 RMK A01 T01061023  RH  040%=      5-min Rain = 0
KEA1 192142Z 29008KT 11/M02 A3026 RMK A01 T01071023  RH  040%=      5-min Rain = 0
KEA1 192143Z 30008KT 11/M02 A3026 RMK A01 T01061024  RH  040%=      5-min Rain = 0
KEA1 192144Z 31007KT 11/M02 A3026 RMK A01 T01051023  RH  041%=      5-min Rain = 0
KEA1 192145Z 30007KT 11/M02 A3026 RMK A01 T01051021  RH  041%=      5-min Rain = 0
KEA1 192146Z 32007KT 10/M02 A3026 RMK A01 T01031022  RH  041%=      5-min Rain = 0
KEA1 192147Z 33008KT 10/M02 A3026 RMK A01 T01031023  RH  041%=      5-min Rain = 0
KEA1 192148Z 32006KT 10/M02 A3026 RMK A01 T01041023  RH  041%=      5-min Rain = 0
KEA1 192149Z 32008KT 11/M02 A3026 RMK A01 T01061021  RH  041%=      5-min Rain = 0
KEA1 192150Z 30007KT 11/M02 A3026 RMK A01 T01061023  RH  041%=      5-min Rain = 0
KEA1 192151Z 32007KT 10/M02 A3026 RMK A01 T01041023  RH  041%=      5-min Rain = 0
KEA1 192152Z 31006KT 10/M02 A3026 RMK A01 T01031024  RH  041%=      5-min Rain = 0
KEA1 192153Z 31006KT 10/M02 A3026 RMK A01 T01021023  RH  042%=      5-min Rain = 0
KEA1 192154Z 31005KT 10/M02 A3026 RMK A01 T01011022  RH  042%=      5-min Rain = 0
KEA1 192155Z 29006KT 10/M02 A3026 RMK A01 T01011022  RH  042%=      5-min Rain = 0
KEA1 192156Z 31004KT 10/M02 A3026 RMK A01 T01011023  RH  042%=      5-min Rain = 0
KEA1 192157Z 30003KT 10/M02 A3026 RMK A01 T01021024  RH  041%=      5-min Rain = 0
KEA1 192158Z 31004KT 10/M02 A3026 RMK A01 T01031022  RH  041%=      5-min Rain = 0
KEA1 192159Z 30005KT 11/M02 A3026 RMK A01 T01051021  RH  041%=      5-min Rain = 0
KEA1 192200Z 31005KT 11/M02 A3026 RMK A01 T01051020  RH  042%=      5-min Rain = 0
KEA1 192201Z 32005KT 11/M02 A3026 RMK A01 T01051020  RH  042%=      5-min Rain = 0
KEA1 192202Z 32004KT 10/M02 A3026 RMK A01 T01041024  RH  041%=      5-min Rain = 0
KEA1 192203Z 34003KT 10/M03 A3026 RMK A01 T01021027  RH  040%=      5-min Rain = 0
KEA1 192204Z 33003KT 10/M03 A3026 RMK A01 T01021027  RH  040%=      5-min Rain = 0
KEA1 192205Z 31003KT 10/M02 A3026 RMK A01 T01031024  RH  041%=      5-min Rain = 0
KEA1 192206Z 28002KT 11/M02 A3026 RMK A01 T01051021  RH  041%=      5-min Rain = 0
KEA1 192207Z 26002KT 11/M02 A3026 RMK A01 T01061021  RH  041%=      5-min Rain = 0
KEA1 192208Z 28002KT 11/M02 A3026 RMK A01 T01081020  RH  041%=      5-min Rain = 0
KEA1 192209Z 00002KT 11/M02 A3026 RMK A01 T01091022  RH  040%=      5-min Rain = 0
KEA1 192210Z 35003KT 11/M02 A3026 RMK A01 T01101022  RH  040%=      5-min Rain = 0
KEA1 192211Z 02003KT 11/M02 A3026 RMK A01 T01101019  RH  041%=      5-min Rain = 0
KEA1 192212Z 02005KT 11/M02 A3026 RMK A01 T01091023  RH  040%=      5-min Rain = 0
KEA1 192213Z 02005KT 11/M02 A3026 RMK A01 T01081023  RH  040%=      5-min Rain = 0
KEA1 192214Z 01007KT 11/M02 A3025 RMK A01 T01061023  RH  040%=      5-min Rain = 0
KEA1 192215Z 03007KT 11/M03 A3025 RMK A01 T01061027  RH  039%=      5-min Rain = 0
KEA1 192216Z 04004KT 10/M03 A3026 RMK A01 T01041028  RH  039%=      5-min Rain = 0
KEA1 192217Z 03005KT 10/M03 A3026 RMK A01 T01031027  RH  040%=      5-min Rain = 0
KEA1 192218Z 03005KT 10/M03 A3026 RMK A01 T01041028  RH  039%=      5-min Rain = 0
KEA1 192219Z 04004KT 10/M03 A3026 RMK A01 T01031029  RH  039%=      5-min Rain = 0
KEA1 192220Z 04004KT 10/M03 A3026 RMK A01 T01031028  RH  040%=      5-min Rain = 0
KEA1 192221Z 02003KT 10/M03 A3026 RMK A01 T01031027  RH  040%=      5-min Rain = 0
KEA1 192222Z 04004KT 10/M03 A3026 RMK A01 T01031027  RH  040%=      5-min Rain = 0
KEA1 192223Z 03005KT 10/M03 A3026 RMK A01 T01031026  RH  040%=      5-min Rain = 0
KEA1 192224Z 36004KT 10/M03 A3026 RMK A01 T01031026  RH  040%=      5-min Rain = 0
KEA1 192225Z 01005KT 10/M03 A3026 RMK A01 T01031026  RH  040%=      5-min Rain = 0
KEA1 192226Z 02004KT 10/M02 A3026 RMK A01 T01041023  RH  041%=      5-min Rain = 0
KEA1 192227Z 02004KT 11/M02 A3026 RMK A01 T01061023  RH  041%=      5-min Rain = 0
KEA1 192228Z 03001KT 11/M02 A3026 RMK A01 T01051024  RH  040%=      5-min Rain = 0
KEA1 192229Z 33001KT 10/M02 A3026 RMK A01 T01041024  RH  041%=      5-min Rain = 0
KEA1 192230Z 33004KT 11/M02 A3026 RMK A01 T01051024  RH  040%=      5-min Rain = 0
KEA1 192231Z 33006KT 11/M03 A3026 RMK A01 T01071025  RH  040%=      5-min Rain = 0
KEA1 192232Z 34004KT 11/M03 A3026 RMK A01 T01051028  RH  039%=      5-min Rain = 0
KEA1 192233Z 34005KT 10/M03 A3026 RMK A01 T01041026  RH  040%=      5-min Rain = 0
KEA1 192234Z 33005KT 10/M03 A3026 RMK A01 T01041029  RH  039%=      5-min Rain = 0
KEA1 192235Z 32006KT 10/M03 A3026 RMK A01 T01041032  RH  038%=      5-min Rain = 0
KEA1 192236Z 32005KT 11/M03 A3026 RMK A01 T01051034  RH  038%=      5-min Rain = 0
KEA1 192237Z 33005KT 11/M03 A3026 RMK A01 T01061031  RH  038%=      5-min Rain = 0
KEA1 192238Z 00005KT 11/M03 A3026 RMK A01 T01061030  RH  038%=      5-min Rain = 0
KEA1 192239Z 35005KT 11/M03 A3026 RMK A01 T01071034  RH  037%=      5-min Rain = 0
KEA1 192240Z 33004KT 11/M03 A3026 RMK A01 T01071034  RH  037%=      5-min Rain = 0
KEA1 192241Z 32002KT 11/M03 A3026 RMK A01 T01071034  RH  037%=      5-min Rain = 0
KEA1 192242Z 33003KT 11/M03 A3026 RMK A01 T01071034  RH  037%=      5-min Rain = 0
KEA1 192243Z 34002KT 11/M03 A3026 RMK A01 T01071033  RH  037%=      5-min Rain = 0
KEA1 192244Z 32001KT 11/M03 A3026 RMK A01 T01071032  RH  037%=      5-min Rain = 0
KEA1 192245Z 32002KT 11/M03 A3026 RMK A01 T01081031  RH  037%=      5-min Rain = 0
KEA1 192246Z 33004KT 11/M03 A3026 RMK A01 T01101031  RH  037%=      5-min Rain = 0
KEA1 192247Z 32004KT 11/M03 A3026 RMK A01 T01091033  RH  037%=      5-min Rain = 0
KEA1 192248Z 31004KT 11/M04 A3026 RMK A01 T01071036  RH  036%=      5-min Rain = 0
KEA1 192249Z 34003KT 11/M04 A3026 RMK A01 T01051036  RH  037%=      5-min Rain = 0
KEA1 192250Z 35003KT 11/M03 A3026 RMK A01 T01061032  RH  038%=      5-min Rain = 0
KEA1 192251Z 00003KT 11/M03 A3025 RMK A01 T01071032  RH  038%=      5-min Rain = 0
KEA1 192252Z 01004KT 11/M03 A3025 RMK A01 T01071032  RH  037%=      5-min Rain = 0
KEA1 192253Z 36003KT 11/M03 A3025 RMK A01 T01071032  RH  037%=      5-min Rain = 0
KEA1 192254Z 03002KT 11/M03 A3025 RMK A01 T01071032  RH  038%=      5-min Rain = 0
KEA1 192255Z 05003KT 11/M03 A3025 RMK A01 T01071032  RH  037%=      5-min Rain = 0
KEA1 192256Z 04002KT 11/M03 A3025 RMK A01 T01061032  RH  038%=      5-min Rain = 0
KEA1 192257Z 02003KT 11/M03 A3025 RMK A01 T01051032  RH  038%=      5-min Rain = 0
KEA1 192258Z 36003KT 11/M03 A3025 RMK A01 T01051033  RH  038%=      5-min Rain = 0
KEA1 192259Z 36004KT 11/M03 A3025 RMK A01 T01051033  RH  038%=      5-min Rain = 0
KEA1 192300Z 01004KT 11/M03 A3025 RMK A01 T01051034  RH  037%=      5-min Rain = 0
KEA1 192301Z 01003KT 11/M04 A3025 RMK A01 T01051035  RH  037%=      5-min Rain = 0
KEA1 192302Z 02002KT 11/M04 A3025 RMK A01 T01051035  RH  037%=      5-min Rain = 0
KEA1 192303Z 00003KT 11/M04 A3025 RMK A01 T01061035  RH  037%=      5-min Rain = 0
KEA1 192304Z 35004KT 11/M04 A3025 RMK A01 T01051035  RH  037%=      5-min Rain = 0
KEA1 192305Z 35004KT 11/M04 A3025 RMK A01 T01051035  RH  037%=      5-min Rain = 0
KEA1 192306Z 00005KT 10/M04 A3025 RMK A01 T01041036  RH  037%=      5-min Rain = 0
KEA1 192307Z 01002KT 10/M04 A3025 RMK A01 T01041036  RH  037%=      5-min Rain = 0
KEA1 192308Z 02002KT 10/M04 A3025 RMK A01 T01041036  RH  037%=      5-min Rain = 0
KEA1 192309Z 03002KT 11/M04 A3025 RMK A01 T01051036  RH  037%=      5-min Rain = 0
KEA1 192310Z 03002KT 11/M04 A3025 RMK A01 T01051035  RH  037%=      5-min Rain = 0
KEA1 192311Z 00003KT 10/M03 A3025 RMK A01 T01041034  RH  038%=      5-min Rain = 0
KEA1 192312Z 35004KT 11/M03 A3025 RMK A01 T01051034  RH  038%=      5-min Rain = 0
KEA1 192313Z 35003KT 11/M04 A3025 RMK A01 T01051035  RH  037%=      5-min Rain = 0
KEA1 192314Z 34004KT 11/M04 A3025 RMK A01 T01061035  RH  037%=      5-min Rain = 0
KEA1 192315Z 33002KT 11/M04 A3025 RMK A01 T01061035  RH  037%=      5-min Rain = 0
KEA1 192316Z 34002KT 11/M04 A3025 RMK A01 T01061036  RH  037%=      5-min Rain = 0
KEA1 192317Z 32002KT 11/M04 A3025 RMK A01 T01061037  RH  036%=      5-min Rain = 0
KEA1 192318Z 31003KT 11/M04 A3025 RMK A01 T01061036  RH  037%=      5-min Rain = 0
KEA1 192319Z 31002KT 11/M04 A3025 RMK A01 T01061037  RH  037%=      5-min Rain = 0
KEA1 192320Z 31003KT 11/M04 A3025 RMK A01 T01051037  RH  037%=      5-min Rain = 0
KEA1 192321Z 32002KT 10/M04 A3025 RMK A01 T01041037  RH  037%=      5-min Rain = 0
KEA1 192322Z 36002KT 11/M04 A3025 RMK A01 T01051036  RH  037%=      5-min Rain = 0
KEA1 192323Z 35002KT 11/M04 A3025 RMK A01 T01051036  RH  037%=      5-min Rain = 0
KEA1 192324Z 02002KT 11/M04 A3025 RMK A01 T01051036  RH  037%=      5-min Rain = 0
KEA1 192325Z 01002KT 11/M04 A3025 RMK A01 T01051036  RH  037%=      5-min Rain = 0
KEA1 192326Z 02002KT 11/M04 A3025 RMK A01 T01051036  RH  037%=      5-min Rain = 0
KEA1 192327Z 02003KT 10/M04 A3025 RMK A01 T01041037  RH  037%=      5-min Rain = 0
KEA1 192328Z 03002KT 10/M04 A3025 RMK A01 T01031036  RH  037%=      5-min Rain = 0
KEA1 192329Z 05002KT 10/M04 A3025 RMK A01 T01031035  RH  038%=      5-min Rain = 0
KEA1 192330Z 04003KT 10/M03 A3025 RMK A01 T01021034  RH  038%=      5-min Rain = 0
KEA1 192331Z 03003KT 10/M03 A3025 RMK A01 T01011034  RH  038%=      5-min Rain = 0
KEA1 192332Z 05003KT 10/M04 A3025 RMK A01 T01011035  RH  038%=      5-min Rain = 0
KEA1 192333Z 05003KT 10/M04 A3025 RMK A01 T01001035  RH  039%=      5-min Rain = 0
KEA1 192334Z 05003KT 10/M04 A3025 RMK A01 T00981035  RH  039%=      5-min Rain = 0
KEA1 192335Z 05003KT 10/M04 A3025 RMK A01 T00981036  RH  039%=      5-min Rain = 0
KEA1 192336Z 04003KT 10/M04 A3025 RMK A01 T00971035  RH  039%=      5-min Rain = 0
KEA1 192337Z 04003KT 10/M03 A3025 RMK A01 T00971034  RH  039%=      5-min Rain = 0
KEA1 192338Z 04003KT 10/M03 A3025 RMK A01 T00971034  RH  039%=      5-min Rain = 0
KEA1 192339Z 03003KT 10/M04 A3025 RMK A01 T00971035  RH  039%=      5-min Rain = 0
KEA1 192340Z 04003KT 10/M04 A3025 RMK A01 T00971035  RH  039%=      5-min Rain = 0
KEA1 192341Z 04003KT 10/M04 A3025 RMK A01 T00961036  RH  039%=      5-min Rain = 0
KEA1 192342Z 04003KT 10/M04 A3025 RMK A01 T00961036  RH  039%=      5-min Rain = 0
KEA1 192343Z 03004KT 10/M04 A3025 RMK A01 T00961036  RH  039%=      5-min Rain = 0
KEA1 192344Z 03004KT 10/M04 A3025 RMK A01 T00951036  RH  039%=      5-min Rain = 0
KEA1 192345Z 03005KT 09/M04 A3025 RMK A01 T00941036  RH  040%=      5-min Rain = 0
KEA1 192346Z 03005KT 09/M04 A3025 RMK A01 T00931036  RH  040%=      5-min Rain = 0
KEA1 192347Z 03005KT 09/M04 A3025 RMK A01 T00911036  RH  040%=      5-min Rain = 0
KEA1 192348Z 04005KT 09/M04 A3025 RMK A01 T00901036  RH  041%=      5-min Rain = 0
KEA1 192349Z 04005KT 09/M04 A3025 RMK A01 T00891036  RH  041%=      5-min Rain = 0
KEA1 192350Z 04005KT 09/M04 A3025 RMK A01 T00881036  RH  042%=      5-min Rain = 0
KEA1 192351Z 05004KT 09/M04 A3025 RMK A01 T00881035  RH  042%=      5-min Rain = 0
KEA1 192352Z 05004KT 09/M04 A3025 RMK A01 T00871035  RH  042%=      5-min Rain = 0
KEA1 192353Z 05004KT 09/M04 A3025 RMK A01 T00871035  RH  042%=      5-min Rain = 0
KEA1 192354Z 05004KT 09/M04 A3025 RMK A01 T00861035  RH  042%=      5-min Rain = 0
KEA1 192355Z 07004KT 09/M04 A3025 RMK A01 T00861035  RH  042%=      5-min Rain = 0
KEA1 192356Z 07004KT 09/M04 A3025 RMK A01 T00851035  RH  043%=      5-min Rain = 0
KEA1 192357Z 07005KT 08/M04 A3025 RMK A01 T00841035  RH  043%=      5-min Rain = 0
KEA1 192358Z 08005KT 08/M04 A3025 RMK A01 T00821036  RH  043%=      5-min Rain = 0
KEA1 192359Z 08004KT 08/M04 A3025 RMK A01 T00821036  RH  043%=      5-min Rain = 0
KEA1 200000Z 08005KT 08/M04 A3025 RMK A01 T00811036  RH  043%=      5-min Rain = 0
KEA1 200001Z 08005KT 08/M04 A3025 RMK A01 T00811035  RH  044%=      5-min Rain = 0
KEA1 200002Z 08005KT 08/M04 A3025 RMK A01 T00781035  RH  045%=      5-min Rain = 0
KEA1 200003Z 08006KT 08/M03 A3025 RMK A01 T00761034  RH  046%=      5-min Rain = 0
KEA1 200004Z 08006KT 07/M03 A3025 RMK A01 T00731034  RH  047%=      5-min Rain = 0
KEA1 200005Z 08006KT 07/M03 A3025 RMK A01 T00701034  RH  047%=      5-min Rain = 0
KEA1 200006Z 08006KT 07/M03 A3025 RMK A01 T00681033  RH  048%=      5-min Rain = 0
KEA1 200007Z 08006KT 07/M03 A3025 RMK A01 T00681032  RH  049%=      5-min Rain = 0
KEA1 200008Z 08006KT 07/M03 A3025 RMK A01 T00671031  RH  050%=      5-min Rain = 0
KEA1 200009Z 08006KT 07/M03 A3025 RMK A01 T00661031  RH  050%=      5-min Rain = 0
KEA1 200010Z 08006KT 07/M03 A3025 RMK A01 T00651031  RH  050%=      5-min Rain = 0
KEA1 200011Z 08006KT 06/M03 A3025 RMK A01 T00641031  RH  051%=      5-min Rain = 0
KEA1 200012Z 08007KT 06/M03 A3025 RMK A01 T00631030  RH  051%=      5-min Rain = 0
KEA1 200013Z 08007KT 06/M03 A3025 RMK A01 T00621030  RH  052%=      5-min Rain = 0
KEA1 200014Z 08007KT 06/M03 A3025 RMK A01 T00621029  RH  052%=      5-min Rain = 0
KEA1 200015Z 07007KT 06/M03 A3025 RMK A01 T00611030  RH  052%=      5-min Rain = 0
KEA1 200016Z 07007KT 06/M03 A3025 RMK A01 T00601030  RH  053%=      5-min Rain = 0
KEA1 200017Z 07007KT 06/M03 A3025 RMK A01 T00591029  RH  053%=      5-min Rain = 0
KEA1 200018Z 07007KT 06/M03 A3025 RMK A01 T00591028  RH  054%=      5-min Rain = 0
KEA1 200019Z 07007KT 06/M03 A3025 RMK A01 T00591028  RH  054%=      5-min Rain = 0
KEA1 200020Z 08007KT 06/M03 A3025 RMK A01 T00591028  RH  054%=      5-min Rain = 0
KEA1 200021Z 08007KT 06/M03 A3025 RMK A01 T00591029  RH  053%=      5-min Rain = 0
KEA1 200022Z 08007KT 06/M03 A3025 RMK A01 T00571029  RH  054%=      5-min Rain = 0
KEA1 200023Z 08006KT 06/M03 A3025 RMK A01 T00561028  RH  055%=      5-min Rain = 0
KEA1 200024Z 09005KT 06/M03 A3025 RMK A01 T00551028  RH  055%=      5-min Rain = 0
KEA1 200025Z 09005KT 05/M03 A3025 RMK A01 T00521029  RH  056%=      5-min Rain = 0
KEA1 200026Z 09005KT 05/M03 A3025 RMK A01 T00501028  RH  057%=      5-min Rain = 0
KEA1 200027Z 09006KT 05/M03 A3025 RMK A01 T00501027  RH  058%=      5-min Rain = 0
KEA1 200028Z 10007KT 05/M03 A3025 RMK A01 T00491026  RH  058%=      5-min Rain = 0
KEA1 200029Z 10007KT 05/M03 A3025 RMK A01 T00491026  RH  058%=      5-min Rain = 0
KEA1 200030Z 10007KT 05/M03 A3025 RMK A01 T00491026  RH  058%=      5-min Rain = 0
KEA1 200031Z 10007KT 05/M03 A3025 RMK A01 T00491026  RH  058%=      5-min Rain = 0
KEA1 200032Z 09007KT 05/M03 A3025 RMK A01 T00491025  RH  059%=      5-min Rain = 0
KEA1 200033Z 09006KT 05/M02 A3026 RMK A01 T00491024  RH  059%=      5-min Rain = 0
KEA1 200034Z 09006KT 05/M03 A3026 RMK A01 T00481026  RH  059%=      5-min Rain = 0
KEA1 200035Z 08007KT 04/M03 A3026 RMK A01 T00441030  RH  059%=      5-min Rain = 0
KEA1 200036Z 08007KT 04/M03 A3026 RMK A01 T00411031  RH  059%=      5-min Rain = 0
KEA1 200037Z 08008KT 04/M03 A3026 RMK A01 T00391030  RH  061%=      5-min Rain = 0
KEA1 200038Z 08008KT 04/M03 A3026 RMK A01 T00381030  RH  061%=      5-min Rain = 0
KEA1 200039Z 08008KT 04/M03 A3026 RMK A01 T00371030  RH  062%=      5-min Rain = 0
KEA1 200040Z 08008KT 04/M03 A3026 RMK A01 T00361030  RH  062%=      5-min Rain = 0
KEA1 200041Z 08009KT 04/M03 A3026 RMK A01 T00351028  RH  063%=      5-min Rain = 0
KEA1 200042Z 08009KT 04/M03 A3026 RMK A01 T00361027  RH  063%=      5-min Rain = 0
KEA1 200043Z 08008KT 04/M03 A3026 RMK A01 T00371027  RH  063%=      5-min Rain = 0
KEA1 200044Z 08008KT 04/M03 A3026 RMK A01 T00371027  RH  063%=      5-min Rain = 0
KEA1 200045Z 08008KT 04/M03 A3026 RMK A01 T00371027  RH  063%=      5-min Rain = 0
KEA1 200046Z 08007KT 04/M03 A3026 RMK A01 T00361028  RH  063%=      5-min Rain = 0
KEA1 200047Z 08007KT 04/M03 A3026 RMK A01 T00351028  RH  063%=      5-min Rain = 0
KEA1 200048Z 08007KT 03/M03 A3025 RMK A01 T00341028  RH  064%=      5-min Rain = 0
KEA1 200049Z 08008KT 03/M03 A3025 RMK A01 T00331028  RH  064%=      5-min Rain = 0
KEA1 200050Z 08008KT 03/M03 A3025 RMK A01 T00321028  RH  065%=      5-min Rain = 0
KEA1 200051Z 08008KT 03/M03 A3025 RMK A01 T00311028  RH  065%=      5-min Rain = 0
KEA1 200052Z 08009KT 03/M03 A3025 RMK A01 T00311027  RH  066%=      5-min Rain = 0
KEA1 200053Z 08009KT 03/M03 A3025 RMK A01 T00321026  RH  066%=      5-min Rain = 0
KEA1 200054Z 08009KT 03/M03 A3025 RMK A01 T00321026  RH  066%=      5-min Rain = 0
KEA1 200055Z 08008KT 03/M03 A3025 RMK A01 T00321025  RH  066%=      5-min Rain = 0
KEA1 200056Z 09005KT 03/M03 A3025 RMK A01 T00331025  RH  066%=      5-min Rain = 0
KEA1 200057Z 09005KT 03/M03 A3025 RMK A01 T00321026  RH  066%=      5-min Rain = 0
KEA1 200058Z 09005KT 03/M03 A3025 RMK A01 T00311026  RH  066%=      5-min Rain = 0
KEA1 200059Z 10006KT 03/M03 A3025 RMK A01 T00301027  RH  066%=      5-min Rain = 0
KEA1 200100Z 10006KT 03/M03 A3025 RMK A01 T00281029  RH  066%=      5-min Rain = 0
KEA1 200101Z 10007KT 03/M03 A3025 RMK A01 T00271029  RH  066%=      5-min Rain = 0
KEA1 200102Z 11007KT 03/M03 A3025 RMK A01 T00261029  RH  067%=      5-min Rain = 0
KEA1 200103Z 10007KT 03/M03 A3025 RMK A01 T00261027  RH  068%=      5-min Rain = 0
KEA1 200104Z 10008KT 03/M02 A3025 RMK A01 T00281024  RH  068%=      5-min Rain = 0
KEA1 200105Z 10008KT 03/M02 A3025 RMK A01 T00301024  RH  068%=      5-min Rain = 0
KEA1 200106Z 10007KT 03/M02 A3025 RMK A01 T00301024  RH  067%=      5-min Rain = 0
KEA1 200107Z 10007KT 03/M02 A3025 RMK A01 T00311024  RH  068%=      5-min Rain = 0
KEA1 200108Z 10007KT 03/M02 A3025 RMK A01 T00311023  RH  068%=      5-min Rain = 0
KEA1 200109Z 10007KT 03/M02 A3025 RMK A01 T00301023  RH  068%=      5-min Rain = 0
KEA1 200110Z 10007KT 03/M02 A3025 RMK A01 T00301023  RH  069%=      5-min Rain = 0
KEA1 200111Z 10007KT 03/M02 A3025 RMK A01 T00311021  RH  069%=      5-min Rain = 0
KEA1 200112Z 09007KT 03/M02 A3025 RMK A01 T00311021  RH  068%=      5-min Rain = 0
KEA1 200113Z 09006KT 03/M02 A3025 RMK A01 T00321021  RH  068%=      5-min Rain = 0
KEA1 200114Z 09006KT 03/M02 A3025 RMK A01 T00321021  RH  068%=      5-min Rain = 0
KEA1 200115Z 10007KT 03/M02 A3024 RMK A01 T00321022  RH  068%=      5-min Rain = 0
KEA1 200116Z 10007KT 03/M02 A3024 RMK A01 T00301023  RH  068%=      5-min Rain = 0
KEA1 200117Z 10007KT 03/M02 A3024 RMK A01 T00301023  RH  068%=      5-min Rain = 0
KEA1 200118Z 11008KT 03/M03 A3024 RMK A01 T00281025  RH  068%=      5-min Rain = 0
KEA1 200119Z 11008KT 02/M03 A3024 RMK A01 T00241028  RH  068%=      5-min Rain = 0
KEA1 200120Z 10008KT 02/M03 A3024 RMK A01 T00221028  RH  069%=      5-min Rain = 0
KEA1 200121Z 10007KT 02/M03 A3023 RMK A01 T00211027  RH  070%=      5-min Rain = 0
KEA1 200122Z 10008KT 02/M03 A3023 RMK A01 T00221026  RH  071%=      5-min Rain = 0
KEA1 200123Z 10007KT 02/M03 A3023 RMK A01 T00241025  RH  070%=      5-min Rain = 0
KEA1 200124Z 10008KT 03/M03 A3023 RMK A01 T00251025  RH  070%=      5-min Rain = 0
KEA1 200125Z 10008KT 03/M03 A3023 RMK A01 T00251025  RH  070%=      5-min Rain = 0
KEA1 200126Z 11008KT 03/M03 A3023 RMK A01 T00251025  RH  070%=      5-min Rain = 0
KEA1 200127Z 11008KT 02/M03 A3023 RMK A01 T00241026  RH  069%=      5-min Rain = 0
KEA1 200128Z 11008KT 02/M03 A3023 RMK A01 T00211028  RH  070%=      5-min Rain = 0
KEA1 200129Z 11008KT 02/M03 A3023 RMK A01 T00201029  RH  070%=      5-min Rain = 0
KEA1 200130Z 11009KT 02/M03 A3023 RMK A01 T00191028  RH  071%=      5-min Rain = 0
KEA1 200131Z 11009KT 02/M03 A3024 RMK A01 T00191028  RH  071%=      5-min Rain = 0
KEA1 200132Z 11010KT 02/M03 A3024 RMK A01 T00191028  RH  071%=      5-min Rain = 0
KEA1 200133Z 11009KT 02/M03 A3024 RMK A01 T00191029  RH  071%=      5-min Rain = 0
KEA1 200134Z 11009KT 02/M03 A3024 RMK A01 T00181029  RH  071%=      5-min Rain = 0
KEA1 200135Z 11008KT 02/M03 A3024 RMK A01 T00181029  RH  071%=      5-min Rain = 0
KEA1 200136Z 10007KT 02/M03 A3024 RMK A01 T00181029  RH  071%=      5-min Rain = 0
KEA1 200137Z 10007KT 02/M03 A3024 RMK A01 T00191028  RH  071%=      5-min Rain = 0
KEA1 200138Z 10007KT 02/M03 A3025 RMK A01 T00211027  RH  070%=      5-min Rain = 0
KEA1 200139Z 10006KT 02/M03 A3025 RMK A01 T00211027  RH  070%=      5-min Rain = 0
KEA1 200140Z 10006KT 02/M03 A3025 RMK A01 T00221028  RH  070%=      5-min Rain = 0
KEA1 200141Z 10006KT 02/M03 A3025 RMK A01 T00211028  RH  070%=      5-min Rain = 0
KEA1 200142Z 10006KT 02/M03 A3025 RMK A01 T00211029  RH  070%=      5-min Rain = 0
KEA1 200143Z 10006KT 02/M03 A3025 RMK A01 T00201030  RH  070%=      5-min Rain = 0
KEA1 200144Z 10005KT 02/M03 A3025 RMK A01 T00191030  RH  070%=      5-min Rain = 0
KEA1 200145Z 10006KT 02/M03 A3024 RMK A01 T00181030  RH  071%=      5-min Rain = 0
KEA1 200146Z 11007KT 02/M03 A3024 RMK A01 T00171030  RH  071%=      5-min Rain = 0
KEA1 200147Z 12008KT 02/M03 A3024 RMK A01 T00151033  RH  071%=      5-min Rain = 0
KEA1 200148Z 12008KT 01/M03 A3024 RMK A01 T00121034  RH  071%=      5-min Rain = 0
KEA1 200149Z 13008KT 01/M03 A3024 RMK A01 T00101034  RH  073%=      5-min Rain = 0
KEA1 200150Z 13008KT 01/M03 A3024 RMK A01 T00091034  RH  073%=      5-min Rain = 0
KEA1 200151Z 12008KT 01/M03 A3024 RMK A01 T00091033  RH  074%=      5-min Rain = 0
KEA1 200152Z 13007KT 01/M03 A3025 RMK A01 T00091032  RH  074%=      5-min Rain = 0
KEA1 200153Z 14007KT 01/M03 A3025 RMK A01 T00091033  RH  074%=      5-min Rain = 0
KEA1 200154Z 13007KT 01/M03 A3026 RMK A01 T00091033  RH  073%=      5-min Rain = 0
KEA1 200155Z 13006KT 01/M03 A3026 RMK A01 T00081034  RH  073%=      5-min Rain = 0
KEA1 200156Z 13006KT 01/M03 A3026 RMK A01 T00071034  RH  074%=      5-min Rain = 0
KEA1 200157Z 13006KT 01/M04 A3026 RMK A01 T00071035  RH  073%=      5-min Rain = 0
KEA1 200158Z 12007KT 01/M04 A3026 RMK A01 T00061036  RH  073%=      5-min Rain = 0
KEA1 200159Z 12007KT 01/M04 A3026 RMK A01 T00061036  RH  073%=      5-min Rain = 0
KEA1 200200Z 12007KT 01/M04 A3026 RMK A01 T00061036  RH  073%=      5-min Rain = 0
KEA1 200201Z 12007KT 01/M04 A3026 RMK A01 T00071036  RH  073%=      5-min Rain = 0
KEA1 200202Z 13007KT 01/M04 A3026 RMK A01 T00071036  RH  073%=      5-min Rain = 0
KEA1 200203Z 13007KT 01/M04 A3026 RMK A01 T00061038  RH  073%=      5-min Rain = 0
KEA1 200204Z 13007KT 00/M04 A3026 RMK A01 T00041039  RH  073%=      5-min Rain = 0
KEA1 200205Z 13007KT 00/M04 A3026 RMK A01 T00041036  RH  074%=      5-min Rain = 0
KEA1 200206Z 13007KT 01/M04 A3026 RMK A01 T00051036  RH  074%=      5-min Rain = 0
KEA1 200207Z 13007KT 01/M04 A3026 RMK A01 T00051035  RH  074%=      5-min Rain = 0
KEA1 200208Z 13007KT 01/M03 A3026 RMK A01 T00061034  RH  075%=      5-min Rain = 0
KEA1 200209Z 13007KT 01/M03 A3026 RMK A01 T00071034  RH  074%=      5-min Rain = 0
KEA1 200210Z 13007KT 01/M03 A3026 RMK A01 T00071034  RH  074%=      5-min Rain = 0
KEA1 200211Z 14007KT 01/M04 A3027 RMK A01 T00061036  RH  073%=      5-min Rain = 0
KEA1 200212Z 14007KT 01/M04 A3027 RMK A01 T00051037  RH  073%=      5-min Rain = 0
KEA1 200213Z 14007KT 00/M04 A3027 RMK A01 T00021039  RH  074%=      5-min Rain = 0
KEA1 200214Z 13007KT 00/M04 A3027 RMK A01 T00021037  RH  075%=      5-min Rain = 0
KEA1 200215Z 13007KT 00/M04 A3027 RMK A01 T00021036  RH  076%=      5-min Rain = 0
KEA1 200216Z 13007KT 00/M03 A3027 RMK A01 T00041032  RH  076%=      5-min Rain = 0
KEA1 200217Z 12007KT 01/M03 A3027 RMK A01 T00071030  RH  076%=      5-min Rain = 0
KEA1 200218Z 12007KT 01/M03 A3027 RMK A01 T00091030  RH  075%=      5-min Rain = 0
KEA1 200219Z 12007KT 01/M03 A3027 RMK A01 T00101031  RH  074%=      5-min Rain = 0
KEA1 200220Z 12008KT 01/M03 A3027 RMK A01 T00111031  RH  073%=      5-min Rain = 0
KEA1 200221Z 12008KT 01/M03 A3027 RMK A01 T00111032  RH  073%=      5-min Rain = 0
KEA1 200222Z 13008KT 01/M03 A3027 RMK A01 T00101034  RH  073%=      5-min Rain = 0
KEA1 200223Z 13008KT 01/M04 A3027 RMK A01 T00071035  RH  073%=      5-min Rain = 0
KEA1 200224Z 13008KT 01/M04 A3027 RMK A01 T00061035  RH  074%=      5-min Rain = 0
KEA1 200225Z 13007KT 01/M03 A3027 RMK A01 T00051034  RH  075%=      5-min Rain = 0
KEA1 200226Z 13008KT 01/M03 A3027 RMK A01 T00061033  RH  075%=      5-min Rain = 0
KEA1 200227Z 13008KT 01/M03 A3027 RMK A01 T00071032  RH  075%=      5-min Rain = 0
KEA1 200228Z 13008KT 01/M03 A3027 RMK A01 T00081032  RH  074%=      5-min Rain = 0
KEA1 200229Z 13008KT 01/M03 A3027 RMK A01 T00091031  RH  074%=      5-min Rain = 0
KEA1 200230Z 13008KT 01/M03 A3027 RMK A01 T00101032  RH  074%=      5-min Rain = 0
KEA1 200231Z 14008KT 01/M04 A3026 RMK A01 T00071036  RH  073%=      5-min Rain = 0
KEA1 200232Z 14008KT 00/M04 A3026 RMK A01 T00031039  RH  074%=      5-min Rain = 0
KEA1 200233Z 14008KT M00/M04 A3026 RMK A01 T10011041  RH  075%=      5-min Rain = 0
KEA1 200234Z 15008KT M00/M04 A3027 RMK A01 T10041042  RH  076%=      5-min Rain = 0
KEA1 200235Z 15008KT M01/M04 A3027 RMK A01 T10061042  RH  077%=      5-min Rain = 0
KEA1 200236Z 15008KT M01/M04 A3026 RMK A01 T10081042  RH  078%=      5-min Rain = 0
KEA1 200237Z 15009KT M01/M04 A3026 RMK A01 T10091042  RH  078%=      5-min Rain = 0
KEA1 200238Z 15009KT M01/M04 A3026 RMK A01 T10091042  RH  079%=      5-min Rain = 0
KEA1 200239Z 15009KT M01/M04 A3026 RMK A01 T10101042  RH  079%=      5-min Rain = 0
KEA1 200240Z 15009KT M01/M04 A3026 RMK A01 T10111043  RH  079%=      5-min Rain = 0
KEA1 200241Z 15009KT M01/M04 A3026 RMK A01 T10111043  RH  079%=      5-min Rain = 0
KEA1 200242Z 15009KT M01/M04 A3027 RMK A01 T10121043  RH  079%=      5-min Rain = 0
KEA1 200243Z 15009KT M01/M04 A3027 RMK A01 T10111042  RH  080%=      5-min Rain = 0
KEA1 200244Z 15009KT M01/M04 A3027 RMK A01 T10111042  RH  079%=      5-min Rain = 0
KEA1 200245Z 15009KT M01/M04 A3027 RMK A01 T10111043  RH  079%=      5-min Rain = 0
KEA1 200246Z 15008KT M01/M04 A3028 RMK A01 T10111043  RH  079%=      5-min Rain = 0
KEA1 200247Z 15008KT M01/M04 A3027 RMK A01 T10111042  RH  080%=      5-min Rain = 0
KEA1 200248Z 15008KT M01/M04 A3027 RMK A01 T10101041  RH  079%=      5-min Rain = 0
KEA1 200249Z 15009KT M01/M04 A3026 RMK A01 T10101042  RH  079%=      5-min Rain = 0
KEA1 200250Z 15009KT M01/M04 A3026 RMK A01 T10121044  RH  079%=      5-min Rain = 0
KEA1 200251Z 15009KT M01/M05 A3026 RMK A01 T10141045  RH  079%=      5-min Rain = 0
KEA1 200252Z 14009KT M01/M04 A3026 RMK A01 T10141044  RH  080%=      5-min Rain = 0
KEA1 200253Z 14009KT M01/M04 A3025 RMK A01 T10141043  RH  081%=      5-min Rain = 0
KEA1 200254Z 14010KT M01/M04 A3025 RMK A01 T10131042  RH  081%=      5-min Rain = 0
KEA1 200255Z 14010KT M01/M04 A3025 RMK A01 T10131042  RH  081%=      5-min Rain = 0
KEA1 200256Z 15010KT M01/M04 A3025 RMK A01 T10131043  RH  080%=      5-min Rain = 0
KEA1 200257Z 15009KT M01/M04 A3025 RMK A01 T10141043  RH  080%=      5-min Rain = 0
KEA1 200258Z 15009KT M01/M04 A3026 RMK A01 T10141043  RH  081%=      5-min Rain = 0
KEA1 200259Z 15009KT M01/M04 A3026 RMK A01 T10141043  RH  081%=      5-min Rain = 0
KEA1 200300Z 15009KT M02/M04 A3026 RMK A01 T10151043  RH  081%=      5-min Rain = 0
KEA1 200301Z 15009KT M02/M04 A3026 RMK A01 T10151043  RH  081%=      5-min Rain = 0
KEA1 200302Z 15009KT M01/M04 A3025 RMK A01 T10141043  RH  081%=      5-min Rain = 0
KEA1 200303Z 15009KT M01/M04 A3025 RMK A01 T10141043  RH  081%=      5-min Rain = 0
KEA1 200304Z 15009KT M01/M04 A3025 RMK A01 T10141042  RH  081%=      5-min Rain = 0
KEA1 200305Z 15009KT M01/M04 A3025 RMK A01 T10131041  RH  081%=      5-min Rain = 0
KEA1 200306Z 15010KT M01/M04 A3025 RMK A01 T10131041  RH  081%=      5-min Rain = 0
KEA1 200307Z 15010KT M01/M04 A3026 RMK A01 T10121042  RH  081%=      5-min Rain = 0
KEA1 200308Z 15010KT M01/M04 A3026 RMK A01 T10131043  RH  080%=      5-min Rain = 0
KEA1 200309Z 16010KT M01/M04 A3026 RMK A01 T10141043  RH  081%=      5-min Rain = 0
KEA1 200310Z 16009KT M01/M04 A3026 RMK A01 T10131042  RH  081%=      5-min Rain = 0
KEA1 200311Z 16009KT M01/M04 A3026 RMK A01 T10131042  RH  081%=      5-min Rain = 0
KEA1 200312Z 16010KT M01/M04 A3026 RMK A01 T10141043  RH  081%=      5-min Rain = 0
KEA1 200313Z 16010KT M02/M04 A3025 RMK A01 T10151044  RH  081%=      5-min Rain = 0
KEA1 200314Z 15009KT M02/M04 A3025 RMK A01 T10151043  RH  081%=      5-min Rain = 0
KEA1 200315Z 15009KT M02/M04 A3025 RMK A01 T10151042  RH  082%=      5-min Rain = 0
KEA1 200316Z 15008KT M01/M04 A3025 RMK A01 T10141041  RH  082%=      5-min Rain = 0
KEA1 200317Z 15008KT M01/M04 A3026 RMK A01 T10131041  RH  081%=      5-min Rain = 0
KEA1 200318Z 15008KT M01/M04 A3026 RMK A01 T10121040  RH  081%=      5-min Rain = 0
KEA1 200319Z 15008KT M01/M04 A3026 RMK A01 T10101039  RH  081%=      5-min Rain = 0
KEA1 200320Z 15008KT M01/M04 A3025 RMK A01 T10101039  RH  081%=      5-min Rain = 0
KEA1 200321Z 15008KT M01/M04 A3025 RMK A01 T10091039  RH  080%=      5-min Rain = 0
KEA1 200322Z 15008KT M01/M04 A3025 RMK A01 T10091039  RH  080%=      5-min Rain = 0
KEA1 200323Z 16008KT M01/M04 A3026 RMK A01 T10101040  RH  080%=      5-min Rain = 0
KEA1 200324Z 15008KT M01/M04 A3026 RMK A01 T10101040  RH  080%=      5-min Rain = 0
KEA1 200325Z 15009KT M01/M04 A3026 RMK A01 T10111040  RH  081%=      5-min Rain = 0
KEA1 200326Z 15009KT M01/M04 A3026 RMK A01 T10111039  RH  081%=      5-min Rain = 0
KEA1 200327Z 15010KT M01/M04 A3025 RMK A01 T10101038  RH  081%=      5-min Rain = 0
KEA1 200328Z 14010KT M01/M04 A3025 RMK A01 T10091038  RH  081%=      5-min Rain = 0
KEA1 200329Z 14010KT M01/M04 A3025 RMK A01 T10081037  RH  080%=      5-min Rain = 0
KEA1 200330Z 15010KT M01/M04 A3025 RMK A01 T10071038  RH  080%=      5-min Rain = 0
KEA1 200331Z 15009KT M01/M04 A3026 RMK A01 T10071038  RH  079%=      5-min Rain = 0
KEA1 200332Z 15008KT M01/M04 A3026 RMK A01 T10071038  RH  079%=      5-min Rain = 0
KEA1 200333Z 15008KT M01/M04 A3026 RMK A01 T10071038  RH  079%=      5-min Rain = 0
KEA1 200334Z 15008KT M01/M04 A3026 RMK A01 T10071038  RH  079%=      5-min Rain = 0
KEA1 200335Z 15008KT M01/M04 A3026 RMK A01 T10071038  RH  079%=      5-min Rain = 0
KEA1 200336Z 15009KT M01/M04 A3026 RMK A01 T10061037  RH  079%=      5-min Rain = 0
KEA1 200337Z 15009KT M01/M04 A3026 RMK A01 T10061037  RH  079%=      5-min Rain = 0
KEA1 200338Z 15009KT M01/M04 A3026 RMK A01 T10061039  RH  079%=      5-min Rain = 0
KEA1 200339Z 15009KT M01/M04 A3026 RMK A01 T10081040  RH  079%=      5-min Rain = 0
KEA1 200340Z 15009KT M01/M04 A3026 RMK A01 T10101041  RH  079%=      5-min Rain = 0
KEA1 200341Z 15009KT M01/M04 A3026 RMK A01 T10091039  RH  080%=      5-min Rain = 0
KEA1 200342Z 15009KT M01/M04 A3026 RMK A01 T10101039  RH  081%=      5-min Rain = 0
KEA1 200343Z 15009KT M01/M04 A3026 RMK A01 T10101039  RH  081%=      5-min Rain = 0
KEA1 200344Z 15009KT M01/M04 A3026 RMK A01 T10101039  RH  081%=      5-min Rain = 0
KEA1 200345Z 15009KT M01/M04 A3026 RMK A01 T10101039  RH  080%=      5-min Rain = 0
KEA1 200346Z 16009KT M01/M04 A3026 RMK A01 T10101040  RH  080%=      5-min Rain = 0
KEA1 200347Z 16008KT M01/M04 A3026 RMK A01 T10101040  RH  080%=      5-min Rain = 0
KEA1 200348Z 16008KT M01/M04 A3027 RMK A01 T10111041  RH  080%=      5-min Rain = 0
KEA1 200349Z 16007KT M01/M04 A3027 RMK A01 T10111041  RH  080%=      5-min Rain = 0
KEA1 200350Z 16007KT M01/M04 A3026 RMK A01 T10111041  RH  080%=      5-min Rain = 0
KEA1 200351Z 16007KT M01/M04 A3026 RMK A01 T10111041  RH  081%=      5-min Rain = 0
KEA1 200352Z 16007KT M01/M04 A3026 RMK A01 T10111040  RH  081%=      5-min Rain = 0
KEA1 200353Z 16007KT M01/M04 A3026 RMK A01 T10101040  RH  080%=      5-min Rain = 0
KEA1 200354Z 16007KT M01/M04 A3027 RMK A01 T10101040  RH  080%=      5-min Rain = 0
KEA1 200355Z 16007KT M01/M04 A3027 RMK A01 T10101040  RH  080%=      5-min Rain = 0
KEA1 200356Z 16007KT M01/M04 A3027 RMK A01 T10091040  RH  080%=      5-min Rain = 0
KEA1 200357Z 16007KT M01/M04 A3027 RMK A01 T10101041  RH  080%=      5-min Rain = 0
KEA1 200358Z 16007KT M01/M04 A3026 RMK A01 T10111041  RH  080%=      5-min Rain = 0
KEA1 200359Z 15007KT M01/M04 A3026 RMK A01 T10111041  RH  080%=      5-min Rain = 0
KEA1 200400Z 15007KT M01/M04 A3026 RMK A01 T10111040  RH  081%=      5-min Rain = 0
KEA1 200401Z 15007KT M01/M04 A3026 RMK A01 T10121041  RH  080%=      5-min Rain = 0
KEA1 200402Z 16007KT M01/M04 A3026 RMK A01 T10111041  RH  080%=      5-min Rain = 0
KEA1 200403Z 16007KT M01/M04 A3026 RMK A01 T10121041  RH  080%=      5-min Rain = 0
KEA1 200404Z 16007KT M01/M04 A3026 RMK A01 T10121041  RH  081%=      5-min Rain = 0
KEA1 200405Z 16007KT M01/M04 A3026 RMK A01 T10131042  RH  081%=      5-min Rain = 0
KEA1 200406Z 16008KT M01/M04 A3026 RMK A01 T10141043  RH  081%=      5-min Rain = 0
KEA1 200407Z 16008KT M02/M05 A3026 RMK A01 T10161045  RH  080%=      5-min Rain = 0
KEA1 200408Z 16009KT M02/M05 A3026 RMK A01 T10171046  RH  081%=      5-min Rain = 0
KEA1 200409Z 16009KT M02/M05 A3026 RMK A01 T10181046  RH  082%=      5-min Rain = 0
KEA1 200410Z 16010KT M02/M04 A3026 RMK A01 T10181044  RH  082%=      5-min Rain = 0
KEA1 200411Z 16010KT M02/M04 A3025 RMK A01 T10181044  RH  082%=      5-min Rain = 0
KEA1 200412Z 16009KT M02/M04 A3025 RMK A01 T10181044  RH  082%=      5-min Rain = 0
KEA1 200413Z 16009KT M02/M04 A3025 RMK A01 T10171044  RH  082%=      5-min Rain = 0
KEA1 200414Z 16009KT M02/M05 A3025 RMK A01 T10171045  RH  082%=      5-min Rain = 0
KEA1 200415Z 16009KT M02/M04 A3025 RMK A01 T10171044  RH  082%=      5-min Rain = 0
KEA1 200416Z 16009KT M02/M04 A3025 RMK A01 T10171044  RH  082%=      5-min Rain = 0
KEA1 200417Z 16009KT M02/M04 A3025 RMK A01 T10171044  RH  082%=      5-min Rain = 0
KEA1 200418Z 16009KT M02/M04 A3025 RMK A01 T10171043  RH  082%=      5-min Rain = 0
KEA1 200419Z 16009KT M02/M04 A3025 RMK A01 T10161042  RH  082%=      5-min Rain = 0
KEA1 200420Z 16009KT M01/M04 A3025 RMK A01 T10141040  RH  082%=      5-min Rain = 0
KEA1 200421Z 16009KT M01/M04 A3025 RMK A01 T10131040  RH  082%=      5-min Rain = 0
KEA1 200422Z 15009KT M01/M04 A3025 RMK A01 T10111038  RH  082%=      5-min Rain = 0
KEA1 200423Z 16008KT M01/M04 A3025 RMK A01 T10101039  RH  081%=      5-min Rain = 0
KEA1 200424Z 16008KT M01/M04 A3025 RMK A01 T10091038  RH  081%=      5-min Rain = 0
KEA1 200425Z 16008KT M01/M04 A3025 RMK A01 T10101039  RH  080%=      5-min Rain = 0
KEA1 200426Z 17008KT M01/M04 A3025 RMK A01 T10091039  RH  080%=      5-min Rain = 0
KEA1 200427Z 17008KT M01/M04 A3025 RMK A01 T10091039  RH  080%=      5-min Rain = 0
KEA1 200428Z 17008KT M01/M04 A3025 RMK A01 T10091038  RH  080%=      5-min Rain = 0
KEA1 200429Z 17007KT M01/M04 A3025 RMK A01 T10091039  RH  080%=      5-min Rain = 0
KEA1 200430Z 17007KT M01/M04 A3025 RMK A01 T10091039  RH  080%=      5-min Rain = 0
KEA1 200431Z 17007KT M01/M04 A3025 RMK A01 T10091039  RH  080%=      5-min Rain = 0
KEA1 200432Z 17007KT M01/M04 A3025 RMK A01 T10091038  RH  081%=      5-min Rain = 0
KEA1 200433Z 17007KT M01/M04 A3025 RMK A01 T10091038  RH  081%=      5-min Rain = 0
KEA1 200434Z 16008KT M01/M04 A3025 RMK A01 T10091039  RH  080%=      5-min Rain = 0
KEA1 200435Z 16008KT M01/M04 A3026 RMK A01 T10101040  RH  080%=      5-min Rain = 0
KEA1 200436Z 16008KT M01/M04 A3026 RMK A01 T10111040  RH  080%=      5-min Rain = 0
KEA1 200437Z 16008KT M01/M04 A3026 RMK A01 T10121041  RH  081%=      5-min Rain = 0
KEA1 200438Z 16008KT M01/M04 A3026 RMK A01 T10121041  RH  081%=      5-min Rain = 0
KEA1 200439Z 16008KT M01/M04 A3026 RMK A01 T10131041  RH  081%=      5-min Rain = 0
KEA1 200440Z 16009KT M01/M04 A3026 RMK A01 T10131042  RH  081%=      5-min Rain = 0
KEA1 200441Z 16009KT M01/M04 A3025 RMK A01 T10141043  RH  081%=      5-min Rain = 0
KEA1 200442Z 16009KT M01/M04 A3025 RMK A01 T10141043  RH  081%=      5-min Rain = 0
KEA1 200443Z 16009KT M01/M04 A3025 RMK A01 T10141042  RH  081%=      5-min Rain = 0
KEA1 200444Z 15008KT M01/M04 A3025 RMK A01 T10141042  RH  081%=      5-min Rain = 0
KEA1 200445Z 15008KT M01/M04 A3025 RMK A01 T10141041  RH  082%=      5-min Rain = 0
KEA1 200446Z 15009KT M01/M04 A3025 RMK A01 T10121040  RH  082%=      5-min Rain = 0
KEA1 200447Z 15008KT M01/M04 A3025 RMK A01 T10111038  RH  081%=      5-min Rain = 0
KEA1 200448Z 15008KT M01/M04 A3025 RMK A01 T10091038  RH  081%=      5-min Rain = 0
KEA1 200449Z 15008KT M01/M04 A3025 RMK A01 T10081038  RH  080%=      5-min Rain = 0
KEA1 200450Z 15008KT M01/M04 A3025 RMK A01 T10081038  RH  080%=      5-min Rain = 0
KEA1 200451Z 15008KT M01/M04 A3025 RMK A01 T10081038  RH  080%=      5-min Rain = 0
KEA1 200452Z 15008KT M01/M04 A3025 RMK A01 T10081038  RH  080%=      5-min Rain = 0
KEA1 200453Z 15007KT M01/M04 A3026 RMK A01 T10071037  RH  080%=      5-min Rain = 0
KEA1 200454Z 15008KT M01/M04 A3026 RMK A01 T10071037  RH  080%=      5-min Rain = 0
KEA1 200455Z 15007KT M01/M04 A3026 RMK A01 T10071037  RH  080%=      5-min Rain = 0
KEA1 200456Z 15007KT M01/M04 A3026 RMK A01 T10071037  RH  080%=      5-min Rain = 0
KEA1 200457Z 15007KT M01/M04 A3026 RMK A01 T10061037  RH  080%=      5-min Rain = 0
KEA1 200458Z 15007KT M01/M04 A3026 RMK A01 T10071037  RH  080%=      5-min Rain = 0
KEA1 200459Z 15006KT M01/M04 A3026 RMK A01 T10061037  RH  080%=      5-min Rain = 0
KEA1 200500Z 15006KT M01/M04 A3026 RMK A01 T10061037  RH  080%=      5-min Rain = 0
KEA1 200501Z 15006KT M01/M04 A3026 RMK A01 T10061037  RH  080%=      5-min Rain = 0
KEA1 200502Z 15006KT M01/M04 A3026 RMK A01 T10051037  RH  079%=      5-min Rain = 0
KEA1 200503Z 15006KT M01/M04 A3026 RMK A01 T10051037  RH  079%=      5-min Rain = 0
KEA1 200504Z 15006KT M01/M04 A3026 RMK A01 T10051037  RH  079%=      5-min Rain = 0
KEA1 200505Z 15007KT M01/M04 A3026 RMK A01 T10051038  RH  079%=      5-min Rain = 0
KEA1 200506Z 15007KT M01/M04 A3026 RMK A01 T10051038  RH  079%=      5-min Rain = 0
KEA1 200507Z 15007KT M01/M04 A3026 RMK A01 T10061039  RH  079%=      5-min Rain = 0
KEA1 200508Z 16007KT M01/M04 A3026 RMK A01 T10071040  RH  078%=      5-min Rain = 0
KEA1 200509Z 16007KT M01/M04 A3027 RMK A01 T10081041  RH  079%=      5-min Rain = 0
KEA1 200510Z 17006KT M01/M04 A3027 RMK A01 T10091041  RH  079%=      5-min Rain = 0
KEA1 200511Z 17007KT M01/M04 A3026 RMK A01 T10091041  RH  079%=      5-min Rain = 0
KEA1 200512Z 17006KT M01/M04 A3026 RMK A01 T10091040  RH  079%=      5-min Rain = 0
KEA1 200513Z 16007KT M01/M04 A3026 RMK A01 T10081040  RH  079%=      5-min Rain = 0
KEA1 200514Z 16007KT M01/M04 A3026 RMK A01 T10081041  RH  078%=      5-min Rain = 0
KEA1 200515Z 16008KT M01/M04 A3026 RMK A01 T10081041  RH  078%=      5-min Rain = 0
KEA1 200516Z 16008KT M01/M04 A3026 RMK A01 T10091042  RH  078%=      5-min Rain = 0
KEA1 200517Z 16008KT M01/M04 A3026 RMK A01 T10101042  RH  079%=      5-min Rain = 0
KEA1 200518Z 16009KT M01/M04 A3026 RMK A01 T10101042  RH  079%=      5-min Rain = 0
KEA1 200519Z 16009KT M01/M04 A3026 RMK A01 T10101041  RH  079%=      5-min Rain = 0
KEA1 200520Z 16008KT M01/M04 A3026 RMK A01 T10091040  RH  080%=      5-min Rain = 0
KEA1 200521Z 16008KT M01/M04 A3026 RMK A01 T10091040  RH  079%=      5-min Rain = 0
KEA1 200522Z 16008KT M01/M04 A3026 RMK A01 T10091040  RH  080%=      5-min Rain = 0
KEA1 200523Z 16007KT M01/M04 A3026 RMK A01 T10081039  RH  080%=      5-min Rain = 0
KEA1 200524Z 16007KT M01/M04 A3026 RMK A01 T10081039  RH  079%=      5-min Rain = 0
KEA1 200525Z 16007KT M01/M04 A3027 RMK A01 T10081040  RH  079%=      5-min Rain = 0
KEA1 200526Z 16007KT M01/M04 A3027 RMK A01 T10081040  RH  079%=      5-min Rain = 0
KEA1 200527Z 16007KT M01/M04 A3027 RMK A01 T10071040  RH  079%=      5-min Rain = 0
KEA1 200528Z 16008KT M01/M04 A3027 RMK A01 T10071040  RH  079%=      5-min Rain = 0
KEA1 200529Z 16007KT M01/M04 A3027 RMK A01 T10071040  RH  079%=      5-min Rain = 0
KEA1 200530Z 16008KT M01/M04 A3027 RMK A01 T10071039  RH  079%=      5-min Rain = 0
KEA1 200531Z 16007KT M01/M04 A3027 RMK A01 T10071039  RH  079%=      5-min Rain = 0
KEA1 200532Z 16008KT M01/M04 A3027 RMK A01 T10061039  RH  079%=      5-min Rain = 0
KEA1 200533Z 16008KT M01/M04 A3027 RMK A01 T10061039  RH  078%=      5-min Rain = 0
KEA1 200534Z 16007KT M01/M04 A3027 RMK A01 T10061039  RH  078%=      5-min Rain = 0
KEA1 200535Z 16007KT M01/M04 A3027 RMK A01 T10061039  RH  078%=      5-min Rain = 0
KEA1 200536Z 16007KT M01/M04 A3027 RMK A01 T10061040  RH  078%=      5-min Rain = 0
KEA1 200537Z 16007KT M01/M04 A3027 RMK A01 T10061040  RH  078%=      5-min Rain = 0
KEA1 200538Z 17008KT M01/M04 A3027 RMK A01 T10061040  RH  078%=      5-min Rain = 0
KEA1 200539Z 17008KT M01/M04 A3027 RMK A01 T10061040  RH  078%=      5-min Rain = 0
KEA1 200540Z 17008KT M01/M04 A3027 RMK A01 T10051039  RH  078%=      5-min Rain = 0
KEA1 200541Z 17008KT M01/M04 A3027 RMK A01 T10061039  RH  078%=      5-min Rain = 0
KEA1 200542Z 16008KT M01/M04 A3027 RMK A01 T10061040  RH  078%=      5-min Rain = 0
KEA1 200543Z 16008KT M01/M04 A3027 RMK A01 T10061040  RH  078%=      5-min Rain = 0
KEA1 200544Z 16008KT M01/M04 A3026 RMK A01 T10061039  RH  078%=      5-min Rain = 0
KEA1 200545Z 17008KT M01/M04 A3026 RMK A01 T10051039  RH  078%=      5-min Rain = 0
KEA1 200546Z 17008KT M01/M04 A3027 RMK A01 T10051039  RH  078%=      5-min Rain = 0
KEA1 200547Z 17008KT M01/M04 A3027 RMK A01 T10051039  RH  078%=      5-min Rain = 0
KEA1 200548Z 17008KT M01/M04 A3027 RMK A01 T10051039  RH  078%=      5-min Rain = 0
KEA1 200549Z 17007KT M01/M04 A3028 RMK A01 T10051039  RH  078%=      5-min Rain = 0
KEA1 200550Z 17008KT M00/M04 A3028 RMK A01 T10041039  RH  078%=      5-min Rain = 0
KEA1 200551Z 17008KT M00/M04 A3028 RMK A01 T10041039  RH  077%=      5-min Rain = 0
KEA1 200552Z 17009KT M00/M04 A3027 RMK A01 T10041039  RH  077%=      5-min Rain = 0
KEA1 200553Z 17009KT M00/M04 A3027 RMK A01 T10041039  RH  077%=      5-min Rain = 0
KEA1 200554Z 17009KT M00/M04 A3027 RMK A01 T10031039  RH  077%=      5-min Rain = 0
KEA1 200555Z 17009KT M00/M04 A3027 RMK A01 T10031039  RH  077%=      5-min Rain = 0
KEA1 200556Z 17009KT M00/M04 A3027 RMK A01 T10031039  RH  076%=      5-min Rain = 0
KEA1 200557Z 17009KT M00/M04 A3027 RMK A01 T10031039  RH  076%=      5-min Rain = 0
KEA1 200558Z 17009KT M00/M04 A3027 RMK A01 T10031040  RH  076%=      5-min Rain = 0
KEA1 200559Z 16009KT M00/M04 A3027 RMK A01 T10021039  RH  076%=      5-min Rain = 0

Page generated in 0.076 seconds.